<?xml version='1.0' encoding='UTF-8'?><gpx version="1.1" creator="JPX - https://github.com/jenetics/jpx" xmlns="http://www.topografix.com/GPX/1/1"><trk><trkseg><trkpt lat="44.71841091896666" lon="8.010276862710166"><ele>171.0</ele><time>2026-04-11T16:03:22Z</time></trkpt><trkpt lat="44.71843775495803" lon="8.010134308028414"><ele>171.0</ele><time>2026-04-11T16:03:25Z</time></trkpt><trkpt lat="44.71853998518688" lon="8.010092089421963"><ele>171.0</ele><time>2026-04-11T16:03:26Z</time></trkpt><trkpt lat="44.71866542603574" lon="8.010065793557505"><ele>171.0</ele><time>2026-04-11T16:03:27Z</time></trkpt><trkpt lat="44.718820652972035" lon="8.010122891318357"><ele>171.33333333333334</ele><time>2026-04-11T16:03:28Z</time></trkpt><trkpt lat="44.718982573356556" lon="8.010087671337054"><ele>171.66666666666669</ele><time>2026-04-11T16:03:29Z</time></trkpt><trkpt lat="44.71918145881395" lon="8.010044033654124"><ele>172.0</ele><time>2026-04-11T16:03:30Z</time></trkpt><trkpt lat="44.719380954421844" lon="8.01000044340343"><ele>172.0</ele><time>2026-04-11T16:03:31Z</time></trkpt><trkpt lat="44.71960453053896" lon="8.009952110878885"><ele>172.0</ele><time>2026-04-11T16:03:32Z</time></trkpt><trkpt lat="44.71983274215747" lon="8.009902247528705"><ele>172.0</ele><time>2026-04-11T16:03:33Z</time></trkpt><trkpt lat="44.720066698446196" lon="8.009850799817158"><ele>172.0</ele><time>2026-04-11T16:03:34Z</time></trkpt><trkpt lat="44.72029100580111" lon="8.009801512278154"><ele>172.33333333333334</ele><time>2026-04-11T16:03:35Z</time></trkpt><trkpt lat="44.72049956588305" lon="8.009755774949314"><ele>172.66666666666666</ele><time>2026-04-11T16:03:36Z</time></trkpt><trkpt lat="44.720683928313264" lon="8.00965634055612"><ele>173.0</ele><time>2026-04-11T16:03:37Z</time></trkpt><trkpt lat="44.720858358648535" lon="8.009612973468125"><ele>173.0</ele><time>2026-04-11T16:03:38Z</time></trkpt><trkpt lat="44.72098982418985" lon="8.009586813551325"><ele>173.0</ele><time>2026-04-11T16:03:39Z</time></trkpt><trkpt lat="44.72108294144085" lon="8.009592008757787"><ele>173.0</ele><time>2026-04-11T16:03:40Z</time></trkpt><trkpt lat="44.72118216995009" lon="8.009706437950772"><ele>173.0</ele><time>2026-04-11T16:03:41Z</time></trkpt><trkpt lat="44.7212885825187" lon="8.009706384629796"><ele>173.4</ele><time>2026-04-11T16:03:43Z</time></trkpt><trkpt lat="44.72135845658618" lon="8.009602453773539"><ele>173.8</ele><time>2026-04-11T16:03:44Z</time></trkpt><trkpt lat="44.72143077143172" lon="8.009518016013665"><ele>174.2</ele><time>2026-04-11T16:03:45Z</time></trkpt><trkpt lat="44.72152341448941" lon="8.009466753923215"><ele>174.6</ele><time>2026-04-11T16:03:46Z</time></trkpt><trkpt lat="44.721633619105916" lon="8.009442999459873"><ele>175.0</ele><time>2026-04-11T16:03:47Z</time></trkpt><trkpt lat="44.72176816166164" lon="8.009419987988046"><ele>175.33333333333334</ele><time>2026-04-11T16:03:48Z</time></trkpt><trkpt lat="44.721931124739406" lon="8.009373722392192"><ele>175.66666666666666</ele><time>2026-04-11T16:03:49Z</time></trkpt><trkpt lat="44.722120812535536" lon="8.009404752031092"><ele>176.0</ele><time>2026-04-11T16:03:50Z</time></trkpt><trkpt lat="44.722319858810046" lon="8.009360307276575"><ele>176.0</ele><time>2026-04-11T16:03:51Z</time></trkpt><trkpt lat="44.72252053485092" lon="8.009316380121797"><ele>176.0</ele><time>2026-04-11T16:03:52Z</time></trkpt><trkpt lat="44.72272923176835" lon="8.009270361958457"><ele>176.0</ele><time>2026-04-11T16:03:53Z</time></trkpt><trkpt lat="44.7229505257039" lon="8.009221062361581"><ele>176.0</ele><time>2026-04-11T16:03:54Z</time></trkpt><trkpt lat="44.72316966285097" lon="8.009174422771832"><ele>176.0</ele><time>2026-04-11T16:03:55Z</time></trkpt><trkpt lat="44.72338429348516" lon="8.00912865819"><ele>176.0</ele><time>2026-04-11T16:03:56Z</time></trkpt><trkpt lat="44.723585741844865" lon="8.009084744903447"><ele>177.66666666666666</ele><time>2026-04-11T16:03:57Z</time></trkpt><trkpt lat="44.723768790659605" lon="8.009044612528148"><ele>179.33333333333334</ele><time>2026-04-11T16:03:58Z</time></trkpt><trkpt lat="44.723938661442055" lon="8.00900648533185"><ele>181.0</ele><time>2026-04-11T16:03:59Z</time></trkpt><trkpt lat="44.72409133725491" lon="8.008924483797962"><ele>181.0</ele><time>2026-04-11T16:04:00Z</time></trkpt><trkpt lat="44.72425650967575" lon="8.00888967536573"><ele>181.0</ele><time>2026-04-11T16:04:01Z</time></trkpt><trkpt lat="44.7244242761827" lon="8.008853715157624"><ele>181.0</ele><time>2026-04-11T16:04:02Z</time></trkpt><trkpt lat="44.72459794912408" lon="8.00881652606855"><ele>181.0</ele><time>2026-04-11T16:04:03Z</time></trkpt><trkpt lat="44.72478503981031" lon="8.008821827801084"><ele>181.0</ele><time>2026-04-11T16:04:04Z</time></trkpt><trkpt lat="44.724971398697896" lon="8.008781188695675"><ele>181.0</ele><time>2026-04-11T16:04:05Z</time></trkpt><trkpt lat="44.72515569634957" lon="8.008740999079109"><ele>180.66666666666669</ele><time>2026-04-11T16:04:06Z</time></trkpt><trkpt lat="44.72533704076351" lon="8.008701455457974"><ele>180.33333333333334</ele><time>2026-04-11T16:04:07Z</time></trkpt><trkpt lat="44.725513236715926" lon="8.00866454483587"><ele>180.0</ele><time>2026-04-11T16:04:08Z</time></trkpt><trkpt lat="44.72568586157763" lon="8.008581745151764"><ele>180.0</ele><time>2026-04-11T16:04:09Z</time></trkpt><trkpt lat="44.72586040539112" lon="8.008545963558797"><ele>180.0</ele><time>2026-04-11T16:04:10Z</time></trkpt><trkpt lat="44.72603589958686" lon="8.008514559351234"><ele>180.0</ele><time>2026-04-11T16:04:11Z</time></trkpt><trkpt lat="44.72620843502113" lon="8.00848043100191"><ele>179.33333333333334</ele><time>2026-04-11T16:04:12Z</time></trkpt><trkpt lat="44.726379209992274" lon="8.008443236888654"><ele>178.66666666666669</ele><time>2026-04-11T16:04:13Z</time></trkpt><trkpt lat="44.72655652414917" lon="8.008440426956884"><ele>178.0</ele><time>2026-04-11T16:04:14Z</time></trkpt><trkpt lat="44.72673607866697" lon="8.008401282454487"><ele>178.0</ele><time>2026-04-11T16:04:15Z</time></trkpt><trkpt lat="44.72692097375173" lon="8.008361603561761"><ele>178.0</ele><time>2026-04-11T16:04:16Z</time></trkpt><trkpt lat="44.727103547312815" lon="8.008322263463839"><ele>178.0</ele><time>2026-04-11T16:04:17Z</time></trkpt><trkpt lat="44.72728832812262" lon="8.008282447761406"><ele>178.33333333333334</ele><time>2026-04-11T16:04:18Z</time></trkpt><trkpt lat="44.7274724202561" lon="8.008242407489256"><ele>178.66666666666666</ele><time>2026-04-11T16:04:19Z</time></trkpt><trkpt lat="44.72764823900686" lon="8.008204088409283"><ele>179.0</ele><time>2026-04-11T16:04:20Z</time></trkpt><trkpt lat="44.727811111014866" lon="8.008168662879545"><ele>179.25</ele><time>2026-04-11T16:04:21Z</time></trkpt><trkpt lat="44.72796120306908" lon="8.008136017048125"><ele>179.5</ele><time>2026-04-11T16:04:22Z</time></trkpt><trkpt lat="44.72810134524484" lon="8.008105396466892"><ele>179.75</ele><time>2026-04-11T16:04:23Z</time></trkpt><trkpt lat="44.7282272582319" lon="8.008077880057515"><ele>180.0</ele><time>2026-04-11T16:04:24Z</time></trkpt><trkpt lat="44.728331043014045" lon="8.008055199433581"><ele>180.0</ele><time>2026-04-11T16:04:25Z</time></trkpt><trkpt lat="44.728420137985026" lon="8.008035729055123"><ele>180.0</ele><time>2026-04-11T16:04:27Z</time></trkpt><trkpt lat="44.72850295290722" lon="8.008017631082723"><ele>180.0</ele><time>2026-04-11T16:04:28.999Z</time></trkpt><trkpt lat="44.728585575890705" lon="8.007999575058356"><ele>180.0</ele><time>2026-04-11T16:04:30.999Z</time></trkpt><trkpt lat="44.728687569278584" lon="8.007977052707144"><ele>180.0</ele><time>2026-04-11T16:04:32.999Z</time></trkpt><trkpt lat="44.728814858766945" lon="8.008014923598234"><ele>180.2</ele><time>2026-04-11T16:04:34.999Z</time></trkpt><trkpt lat="44.72890417274202" lon="8.008075504438885"><ele>180.4</ele><time>2026-04-11T16:04:35.999Z</time></trkpt><trkpt lat="44.72897474079991" lon="8.008105648755345"><ele>180.60000000000002</ele><time>2026-04-11T16:04:36.999Z</time></trkpt><trkpt lat="44.729099097483555" lon="8.008018806256725"><ele>180.8</ele><time>2026-04-11T16:04:38.999Z</time></trkpt><trkpt lat="44.72912817948791" lon="8.007882870676761"><ele>181.0</ele><time>2026-04-11T16:04:39.999Z</time></trkpt><trkpt lat="44.72909178798793" lon="8.007753748092455"><ele>181.0</ele><time>2026-04-11T16:04:40.999Z</time></trkpt><trkpt lat="44.72904637111687" lon="8.007638438912787"><ele>181.0</ele><time>2026-04-11T16:04:41.999Z</time></trkpt><trkpt lat="44.728996259144765" lon="8.007507795735926"><ele>181.0</ele><time>2026-04-11T16:04:42.999Z</time></trkpt><trkpt lat="44.72896254474537" lon="8.007347693693214"><ele>181.0</ele><time>2026-04-11T16:04:43.999Z</time></trkpt><trkpt lat="44.72893096105751" lon="8.00715648104548"><ele>181.0</ele><time>2026-04-11T16:04:44.999Z</time></trkpt><trkpt lat="44.728888441701706" lon="8.00693402807887"><ele>181.0</ele><time>2026-04-11T16:04:45.999Z</time></trkpt><trkpt lat="44.728836068391324" lon="8.006707798606564"><ele>181.0</ele><time>2026-04-11T16:04:46.999Z</time></trkpt><trkpt lat="44.72878348728094" lon="8.006473789322019"><ele>181.0</ele><time>2026-04-11T16:04:47.999Z</time></trkpt><trkpt lat="44.72872824689111" lon="8.006218852019972"><ele>181.0</ele><time>2026-04-11T16:04:48.999Z</time></trkpt><trkpt lat="44.72869149161207" lon="8.005945348029687"><ele>181.0</ele><time>2026-04-11T16:04:49.999Z</time></trkpt><trkpt lat="44.72863562604135" lon="8.005678818150907"><ele>181.0</ele><time>2026-04-11T16:04:50.999Z</time></trkpt><trkpt lat="44.728577925443254" lon="8.005409556700297"><ele>181.0</ele><time>2026-04-11T16:04:51.999Z</time></trkpt><trkpt lat="44.72851819170347" lon="8.00512980986141"><ele>181.0</ele><time>2026-04-11T16:04:52.999Z</time></trkpt><trkpt lat="44.72842972003221" lon="8.004867970506314"><ele>181.33333333333334</ele><time>2026-04-11T16:04:53.999Z</time></trkpt><trkpt lat="44.72837386549297" lon="8.004591426279223"><ele>181.66666666666666</ele><time>2026-04-11T16:04:54.999Z</time></trkpt><trkpt lat="44.72831598198183" lon="8.004315084117595"><ele>182.0</ele><time>2026-04-11T16:04:55.999Z</time></trkpt><trkpt lat="44.728255309414465" lon="8.004026617816498"><ele>182.0</ele><time>2026-04-11T16:04:56.999Z</time></trkpt><trkpt lat="44.7282163438696" lon="8.003722836547945"><ele>182.0</ele><time>2026-04-11T16:04:57.999Z</time></trkpt><trkpt lat="44.728153268178765" lon="8.003429228736698"><ele>182.0</ele><time>2026-04-11T16:04:58.999Z</time></trkpt><trkpt lat="44.72809153171665" lon="8.003141867963128"><ele>182.0</ele><time>2026-04-11T16:04:59.999Z</time></trkpt><trkpt lat="44.728029421836915" lon="8.002852769058986"><ele>182.0</ele><time>2026-04-11T16:05:00.999Z</time></trkpt><trkpt lat="44.72796853077246" lon="8.00256879770093"><ele>182.0</ele><time>2026-04-11T16:05:01.999Z</time></trkpt><trkpt lat="44.727909789896515" lon="8.00229481894973"><ele>183.33333333333331</ele><time>2026-04-11T16:05:02.999Z</time></trkpt><trkpt lat="44.72785632020998" lon="8.002045426113474"><ele>184.66666666666666</ele><time>2026-04-11T16:05:03.999Z</time></trkpt><trkpt lat="44.72780687278202" lon="8.001814793856507"><ele>186.0</ele><time>2026-04-11T16:05:04.999Z</time></trkpt><trkpt lat="44.727759642538835" lon="8.001594503001643"><ele>185.75</ele><time>2026-04-11T16:05:05.999Z</time></trkpt><trkpt lat="44.727714937228214" lon="8.001385988914075"><ele>185.5</ele><time>2026-04-11T16:05:06.999Z</time></trkpt><trkpt lat="44.72764631772043" lon="8.001196795840386"><ele>185.25</ele><time>2026-04-11T16:05:07.999Z</time></trkpt><trkpt lat="44.727605442938895" lon="8.001009583083494"><ele>185.0</ele><time>2026-04-11T16:05:08.999Z</time></trkpt><trkpt lat="44.72756658060747" lon="8.000831759968978"><ele>185.0</ele><time>2026-04-11T16:05:09.999Z</time></trkpt><trkpt lat="44.72752938720425" lon="8.000660446680333"><ele>185.0</ele><time>2026-04-11T16:05:10.999Z</time></trkpt><trkpt lat="44.72751984658625" lon="8.000475708202567"><ele>185.0</ele><time>2026-04-11T16:05:11.999Z</time></trkpt><trkpt lat="44.727456930029724" lon="8.000317108990144"><ele>185.0</ele><time>2026-04-11T16:05:12.999Z</time></trkpt><trkpt lat="44.72742634510474" lon="8.000146199216703"><ele>185.0</ele><time>2026-04-11T16:05:13.999Z</time></trkpt><trkpt lat="44.727403259742516" lon="7.999970639927897"><ele>185.0</ele><time>2026-04-11T16:05:14.999Z</time></trkpt><trkpt lat="44.727398383446285" lon="7.999785736460319"><ele>185.0</ele><time>2026-04-11T16:05:15.999Z</time></trkpt><trkpt lat="44.72744010623158" lon="7.999593102837238"><ele>185.0</ele><time>2026-04-11T16:05:16.999Z</time></trkpt><trkpt lat="44.727473909790994" lon="7.99939540608423"><ele>185.0</ele><time>2026-04-11T16:05:17.999Z</time></trkpt><trkpt lat="44.72752196403826" lon="7.999211441096756"><ele>185.0</ele><time>2026-04-11T16:05:18.999Z</time></trkpt><trkpt lat="44.727568910172835" lon="7.999041985792573"><ele>185.0</ele><time>2026-04-11T16:05:19.999Z</time></trkpt><trkpt lat="44.72760825875215" lon="7.998900111264888"><ele>185.0</ele><time>2026-04-11T16:05:20.999Z</time></trkpt><trkpt lat="44.72764069592428" lon="7.998783156396249"><ele>185.2</ele><time>2026-04-11T16:05:21.999Z</time></trkpt><trkpt lat="44.72766596145136" lon="7.998692059419665"><ele>185.4</ele><time>2026-04-11T16:05:22.999Z</time></trkpt><trkpt lat="44.72769941044114" lon="7.998571456596956"><ele>185.60000000000002</ele><time>2026-04-11T16:05:24.999Z</time></trkpt><trkpt lat="44.72773509613775" lon="7.998442789547853"><ele>185.8</ele><time>2026-04-11T16:05:27.999Z</time></trkpt><trkpt lat="44.72768070662416" lon="7.998298840031537"><ele>186.0</ele><time>2026-04-11T16:05:28.999Z</time></trkpt><trkpt lat="44.727666162468196" lon="7.998191314731676"><ele>185.66666666666666</ele><time>2026-04-11T16:05:29.999Z</time></trkpt><trkpt lat="44.72763978236638" lon="7.9981031243818554"><ele>185.33333333333334</ele><time>2026-04-11T16:05:30.999Z</time></trkpt><trkpt lat="44.72758079218961" lon="7.998027958036079"><ele>185.0</ele><time>2026-04-11T16:05:31.999Z</time></trkpt><trkpt lat="44.72750835269456" lon="7.99798591041831"><ele>184.66666666666669</ele><time>2026-04-11T16:05:32.999Z</time></trkpt><trkpt lat="44.72744316325879" lon="7.997990683112554"><ele>184.33333333333334</ele><time>2026-04-11T16:05:33.999Z</time></trkpt><trkpt lat="44.72731678552316" lon="7.998006753918326"><ele>184.0</ele><time>2026-04-11T16:05:35.999Z</time></trkpt><trkpt lat="44.727224881255516" lon="7.997953880671422"><ele>184.0</ele><time>2026-04-11T16:05:37.999Z</time></trkpt><trkpt lat="44.72714319400166" lon="7.997899984162851"><ele>184.0</ele><time>2026-04-11T16:05:47.999Z</time></trkpt><trkpt lat="44.72708164475799" lon="7.997872162512946"><ele>184.0</ele><time>2026-04-11T16:05:48.999Z</time></trkpt><trkpt lat="44.72697372699731" lon="7.997846850996595"><ele>184.0</ele><time>2026-04-11T16:05:50.999Z</time></trkpt><trkpt lat="44.726889722323165" lon="7.997811089493524"><ele>184.0</ele><time>2026-04-11T16:05:51.999Z</time></trkpt><trkpt lat="44.726774861787014" lon="7.99777598389809"><ele>184.0</ele><time>2026-04-11T16:05:52.999Z</time></trkpt><trkpt lat="44.726638065536115" lon="7.997734083953886"><ele>184.0</ele><time>2026-04-11T16:05:53.999Z</time></trkpt><trkpt lat="44.72649316641861" lon="7.9977228102879785"><ele>184.0</ele><time>2026-04-11T16:05:54.999Z</time></trkpt><trkpt lat="44.72634068617387" lon="7.997716416911209"><ele>184.0</ele><time>2026-04-11T16:05:55.999Z</time></trkpt><trkpt lat="44.72617006697481" lon="7.997669711534324"><ele>185.66666666666669</ele><time>2026-04-11T16:05:56.999Z</time></trkpt><trkpt lat="44.72600075156179" lon="7.997638871462981"><ele>187.33333333333334</ele><time>2026-04-11T16:05:57.999Z</time></trkpt><trkpt lat="44.72582521182114" lon="7.9976015728988905"><ele>189.0</ele><time>2026-04-11T16:05:58.999Z</time></trkpt><trkpt lat="44.72565893935529" lon="7.997566243440194"><ele>189.0</ele><time>2026-04-11T16:05:59.999Z</time></trkpt><trkpt lat="44.72553180091349" lon="7.997535024144455"><ele>189.0</ele><time>2026-04-11T16:06:00.999Z</time></trkpt><trkpt lat="44.72543332307085" lon="7.997504416228693"><ele>189.0</ele><time>2026-04-11T16:06:01.999Z</time></trkpt><trkpt lat="44.7253574446073" lon="7.997467717741143"><ele>189.0</ele><time>2026-04-11T16:06:02.999Z</time></trkpt><trkpt lat="44.72528626345824" lon="7.997411930130637"><ele>189.0</ele><time>2026-04-11T16:06:03.999Z</time></trkpt><trkpt lat="44.725225718803614" lon="7.997331620663221"><ele>190.0</ele><time>2026-04-11T16:06:04.999Z</time></trkpt><trkpt lat="44.725161148168894" lon="7.997239004121911"><ele>191.0</ele><time>2026-04-11T16:06:05.999Z</time></trkpt><trkpt lat="44.72510860493489" lon="7.997117439776467"><ele>192.0</ele><time>2026-04-11T16:06:06.999Z</time></trkpt><trkpt lat="44.725038865463134" lon="7.996955089721567"><ele>193.0</ele><time>2026-04-11T16:06:07.999Z</time></trkpt><trkpt lat="44.72496790885509" lon="7.996787913736155"><ele>195.0</ele><time>2026-04-11T16:06:08.999Z</time></trkpt><trkpt lat="44.724894898176174" lon="7.99661540435665"><ele>197.0</ele><time>2026-04-11T16:06:09.999Z</time></trkpt><trkpt lat="44.72481541591871" lon="7.996472988882574"><ele>199.0</ele><time>2026-04-11T16:06:10.999Z</time></trkpt><trkpt lat="44.72476378225531" lon="7.996345341956668"><ele>201.0</ele><time>2026-04-11T16:06:11.999Z</time></trkpt><trkpt lat="44.72472012469295" lon="7.996276094211434"><ele>203.0</ele><time>2026-04-11T16:06:12.999Z</time></trkpt><trkpt lat="44.72468667637269" lon="7.996192232626467"><ele>203.0</ele><time>2026-04-11T16:06:14.999Z</time></trkpt><trkpt lat="44.72466493973602" lon="7.996093258988772"><ele>203.0</ele><time>2026-04-11T16:06:17.999Z</time></trkpt><trkpt lat="44.72460543833406" lon="7.995993899640313"><ele>203.0</ele><time>2026-04-11T16:06:32.999Z</time></trkpt><trkpt lat="44.72438044758453" lon="7.996080663204691"><ele>203.0</ele><time>2026-04-11T16:06:33.999Z</time></trkpt><trkpt lat="44.72430442596605" lon="7.99605309551764"><ele>201.83333333333334</ele><time>2026-04-11T16:06:34.999Z</time></trkpt><trkpt lat="44.724229527062384" lon="7.996025812374117"><ele>200.66666666666669</ele><time>2026-04-11T16:06:35.999Z</time></trkpt><trkpt lat="44.724145656738834" lon="7.995992849056049"><ele>199.5</ele><time>2026-04-11T16:06:36.999Z</time></trkpt><trkpt lat="44.724074967246736" lon="7.99597335121077"><ele>198.33333333333331</ele><time>2026-04-11T16:06:37.999Z</time></trkpt><trkpt lat="44.72399880584904" lon="7.995952429363536"><ele>197.16666666666666</ele><time>2026-04-11T16:06:38.999Z</time></trkpt><trkpt lat="44.723909991716724" lon="7.995936434947504"><ele>196.0</ele><time>2026-04-11T16:06:40.999Z</time></trkpt><trkpt lat="44.72377575863184" lon="7.995876616591744"><ele>195.99999999999997</ele><time>2026-04-11T16:06:41.999Z</time></trkpt><trkpt lat="44.723688569330456" lon="7.9958508758189915"><ele>196.0</ele><time>2026-04-11T16:06:42.999Z</time></trkpt><trkpt lat="44.72361093612826" lon="7.995831951785628"><ele>196.0</ele><time>2026-04-11T16:06:43.999Z</time></trkpt><trkpt lat="44.72352128379014" lon="7.995810349967021"><ele>196.0</ele><time>2026-04-11T16:06:44.999Z</time></trkpt><trkpt lat="44.723454272079124" lon="7.995785228792112"><ele>195.99999999999997</ele><time>2026-04-11T16:06:45.999Z</time></trkpt><trkpt lat="44.72338431434048" lon="7.995751839615777"><ele>196.0</ele><time>2026-04-11T16:06:47.999Z</time></trkpt><trkpt lat="44.723374211545995" lon="7.995652089481275"><ele>197.28571428571428</ele><time>2026-04-11T16:06:49.999Z</time></trkpt><trkpt lat="44.72338663620108" lon="7.995550170659584"><ele>198.57142857142856</ele><time>2026-04-11T16:06:50.999Z</time></trkpt><trkpt lat="44.72339678831367" lon="7.99544386665193"><ele>199.85714285714286</ele><time>2026-04-11T16:06:51.999Z</time></trkpt><trkpt lat="44.72338822323852" lon="7.995325974589781"><ele>201.14285714285714</ele><time>2026-04-11T16:06:52.999Z</time></trkpt><trkpt lat="44.723370823191146" lon="7.995228406439034"><ele>202.42857142857142</ele><time>2026-04-11T16:06:53.999Z</time></trkpt><trkpt lat="44.72334967853359" lon="7.995143994273836"><ele>203.71428571428572</ele><time>2026-04-11T16:06:54.999Z</time></trkpt><trkpt lat="44.723339030513806" lon="7.9950390623297265"><ele>205.0</ele><time>2026-04-11T16:06:55.999Z</time></trkpt><trkpt lat="44.72337498180476" lon="7.994854979908776"><ele>207.0</ele><time>2026-04-11T16:06:57.999Z</time></trkpt><trkpt lat="44.72340269816746" lon="7.994666931860067"><ele>209.0</ele><time>2026-04-11T16:06:59.999Z</time></trkpt><trkpt lat="44.72340147872567" lon="7.99456380733503"><ele>211.0</ele><time>2026-04-11T16:07:00.999Z</time></trkpt><trkpt lat="44.7234029734266" lon="7.994457646012242"><ele>213.0</ele><time>2026-04-11T16:07:01.999Z</time></trkpt><trkpt lat="44.72339236147277" lon="7.994338125340155"><ele>215.0</ele><time>2026-04-11T16:07:02.999Z</time></trkpt><trkpt lat="44.723391739499014" lon="7.994220927011752"><ele>218.2</ele><time>2026-04-11T16:07:03.999Z</time></trkpt><trkpt lat="44.723391415266974" lon="7.99409582497961"><ele>221.4</ele><time>2026-04-11T16:07:04.999Z</time></trkpt><trkpt lat="44.723394204280176" lon="7.9939541797133025"><ele>224.60000000000002</ele><time>2026-04-11T16:07:05.999Z</time></trkpt><trkpt lat="44.72339928791384" lon="7.993818405569985"><ele>227.8</ele><time>2026-04-11T16:07:06.999Z</time></trkpt><trkpt lat="44.72339927928997" lon="7.993676336336076"><ele>231.0</ele><time>2026-04-11T16:07:07.999Z</time></trkpt><trkpt lat="44.723410411217216" lon="7.993540344554993"><ele>231.0</ele><time>2026-04-11T16:07:08.999Z</time></trkpt><trkpt lat="44.72341322926032" lon="7.993435168654779"><ele>231.00000000000003</ele><time>2026-04-11T16:07:09.999Z</time></trkpt><trkpt lat="44.72338794349909" lon="7.993301143211125"><ele>231.00000000000003</ele><time>2026-04-11T16:07:11.999Z</time></trkpt><trkpt lat="44.723312471756316" lon="7.993219135638778"><ele>231.0</ele><time>2026-04-11T16:07:14.999Z</time></trkpt><trkpt lat="44.72321833838892" lon="7.993198435349261"><ele>231.0</ele><time>2026-04-11T16:07:15.999Z</time></trkpt><trkpt lat="44.723121588855314" lon="7.993181204704292"><ele>233.4</ele><time>2026-04-11T16:07:16.999Z</time></trkpt><trkpt lat="44.7230276301576" lon="7.993157918899518"><ele>235.8</ele><time>2026-04-11T16:07:17.999Z</time></trkpt><trkpt lat="44.72294027259983" lon="7.993137395506737"><ele>238.20000000000002</ele><time>2026-04-11T16:07:18.999Z</time></trkpt><trkpt lat="44.72287349693378" lon="7.993126247535153"><ele>240.60000000000002</ele><time>2026-04-11T16:07:19.999Z</time></trkpt><trkpt lat="44.72272931171317" lon="7.993179974182266"><ele>243.0</ele><time>2026-04-11T16:07:21.999Z</time></trkpt><trkpt lat="44.722647704821426" lon="7.993241645952148"><ele>244.16666666666666</ele><time>2026-04-11T16:07:22.999Z</time></trkpt><trkpt lat="44.72257242424837" lon="7.993274736811074"><ele>245.33333333333331</ele><time>2026-04-11T16:07:23.999Z</time></trkpt><trkpt lat="44.72249203599451" lon="7.993304337281696"><ele>246.5</ele><time>2026-04-11T16:07:24.999Z</time></trkpt><trkpt lat="44.722405981600645" lon="7.9933365818050435"><ele>247.66666666666666</ele><time>2026-04-11T16:07:25.999Z</time></trkpt><trkpt lat="44.72234286360052" lon="7.9933633121740995"><ele>248.83333333333331</ele><time>2026-04-11T16:07:26.999Z</time></trkpt><trkpt lat="44.72225655877051" lon="7.993398091280913"><ele>250.0</ele><time>2026-04-11T16:07:28.999Z</time></trkpt><trkpt lat="44.72218591258172" lon="7.993411400551761"><ele>248.66666666666666</ele><time>2026-04-11T16:07:30.999Z</time></trkpt><trkpt lat="44.72209958341494" lon="7.993388846909152"><ele>247.33333333333331</ele><time>2026-04-11T16:07:33.999Z</time></trkpt><trkpt lat="44.72203133328222" lon="7.993368115186151"><ele>246.0</ele><time>2026-04-11T16:07:36.999Z</time></trkpt><trkpt lat="44.72190611571978" lon="7.993390678610662"><ele>244.66666666666669</ele><time>2026-04-11T16:07:38.999Z</time></trkpt><trkpt lat="44.72183876234305" lon="7.9934090003807485"><ele>243.33333333333334</ele><time>2026-04-11T16:07:39.999Z</time></trkpt><trkpt lat="44.721771387920256" lon="7.993421750481323"><ele>242.0</ele><time>2026-04-11T16:07:40.999Z</time></trkpt><trkpt lat="44.7216546799094" lon="7.993449823943218"><ele>242.0</ele><time>2026-04-11T16:07:42.999Z</time></trkpt><trkpt lat="44.72153928346632" lon="7.993466631314259"><ele>242.0</ele><time>2026-04-11T16:07:45Z</time></trkpt><trkpt lat="44.72141827811572" lon="7.993480376425098"><ele>242.0</ele><time>2026-04-11T16:07:47Z</time></trkpt><trkpt lat="44.72134589675042" lon="7.993491257401944"><ele>242.0</ele><time>2026-04-11T16:07:49Z</time></trkpt><trkpt lat="44.721280666740256" lon="7.993459361806904"><ele>242.0</ele><time>2026-04-11T16:07:58Z</time></trkpt><trkpt lat="44.721221098120424" lon="7.993363427776662"><ele>244.33333333333334</ele><time>2026-04-11T16:08:00Z</time></trkpt><trkpt lat="44.721164965035626" lon="7.993320137919769"><ele>246.66666666666669</ele><time>2026-04-11T16:08:01Z</time></trkpt><trkpt lat="44.72107853711066" lon="7.993265868313987"><ele>249.0</ele><time>2026-04-11T16:08:03Z</time></trkpt><trkpt lat="44.72103123813194" lon="7.993143243610281"><ele>251.33333333333331</ele><time>2026-04-11T16:08:06Z</time></trkpt><trkpt lat="44.721015122964694" lon="7.993034468619937"><ele>253.66666666666666</ele><time>2026-04-11T16:08:08Z</time></trkpt><trkpt lat="44.72104346500086" lon="7.992954587118116"><ele>256.0</ele><time>2026-04-11T16:08:10Z</time></trkpt><trkpt lat="44.721105321794745" lon="7.992858695345446"><ele>255.99999999999997</ele><time>2026-04-11T16:08:12Z</time></trkpt><trkpt lat="44.721154978204105" lon="7.992751216990822"><ele>256.0</ele><time>2026-04-11T16:08:14Z</time></trkpt><trkpt lat="44.72120830221219" lon="7.992636814203592"><ele>256.0</ele><time>2026-04-11T16:08:16Z</time></trkpt><trkpt lat="44.721167423614695" lon="7.992566418571952"><ele>256.0</ele><time>2026-04-11T16:08:19Z</time></trkpt><trkpt lat="44.72110385284927" lon="7.992619165160048"><ele>255.99999999999997</ele><time>2026-04-11T16:08:21Z</time></trkpt><trkpt lat="44.721073617243874" lon="7.992737970923029"><ele>256.0</ele><time>2026-04-11T16:08:23Z</time></trkpt><trkpt lat="44.72105516088202" lon="7.992829557535359"><ele>252.0</ele><time>2026-04-11T16:08:25Z</time></trkpt><trkpt lat="44.72281879433296" lon="7.991213614143371"><ele>252.0</ele><time>2026-04-11T16:12:14Z</time></trkpt><trkpt lat="44.7228401687637" lon="7.991074529734186"><ele>252.0</ele><time>2026-04-11T16:12:23Z</time></trkpt><trkpt lat="44.72282812359367" lon="7.990955815794943"><ele>252.0</ele><time>2026-04-11T16:12:26Z</time></trkpt><trkpt lat="44.722886115763366" lon="7.990847438768657"><ele>252.0</ele><time>2026-04-11T16:12:28Z</time></trkpt><trkpt lat="44.72293543504657" lon="7.990777595052935"><ele>252.0</ele><time>2026-04-11T16:12:29Z</time></trkpt><trkpt lat="44.722969487084576" lon="7.990702299229391"><ele>252.0</ele><time>2026-04-11T16:12:30Z</time></trkpt><trkpt lat="44.72303481414931" lon="7.990572465280664"><ele>252.16666666666666</ele><time>2026-04-11T16:12:32Z</time></trkpt><trkpt lat="44.723101557898936" lon="7.990458490658131"><ele>252.33333333333331</ele><time>2026-04-11T16:12:34Z</time></trkpt><trkpt lat="44.72314697480762" lon="7.990374530213394"><ele>252.5</ele><time>2026-04-11T16:12:36Z</time></trkpt><trkpt lat="44.72317486184336" lon="7.9902705764165765"><ele>252.66666666666666</ele><time>2026-04-11T16:12:39Z</time></trkpt><trkpt lat="44.72312485086293" lon="7.9901614163524375"><ele>252.83333333333331</ele><time>2026-04-11T16:12:42Z</time></trkpt><trkpt lat="44.72305335737243" lon="7.990076866803171"><ele>253.0</ele><time>2026-04-11T16:12:45.001Z</time></trkpt><trkpt lat="44.722987824116935" lon="7.990049808994093"><ele>253.0</ele><time>2026-04-11T16:12:58.001Z</time></trkpt><trkpt lat="44.723075826752705" lon="7.990011346584997"><ele>253.0</ele><time>2026-04-11T16:13:28Z</time></trkpt><trkpt lat="44.72315447159444" lon="7.990262470337945"><ele>253.0</ele><time>2026-04-11T16:13:34Z</time></trkpt><trkpt lat="44.72315229352556" lon="7.990417292413008"><ele>253.0</ele><time>2026-04-11T16:13:36Z</time></trkpt><trkpt lat="44.72308293295231" lon="7.990545317027413"><ele>252.99999999999997</ele><time>2026-04-11T16:13:39Z</time></trkpt><trkpt lat="44.72302228427821" lon="7.990626606926197"><ele>253.0</ele><time>2026-04-11T16:13:40Z</time></trkpt><trkpt lat="44.722975107250534" lon="7.990707298123896"><ele>253.0</ele><time>2026-04-11T16:13:41Z</time></trkpt><trkpt lat="44.72293384066474" lon="7.990803760240388"><ele>253.0</ele><time>2026-04-11T16:13:42Z</time></trkpt><trkpt lat="44.72289463094342" lon="7.990898338558469"><ele>252.99999999999997</ele><time>2026-04-11T16:13:43Z</time></trkpt><trkpt lat="44.72286832824996" lon="7.990990003602546"><ele>253.0</ele><time>2026-04-11T16:13:44Z</time></trkpt><trkpt lat="44.72284313180731" lon="7.991084588210292"><ele>252.8</ele><time>2026-04-11T16:13:45Z</time></trkpt><trkpt lat="44.72283247399094" lon="7.991175453224904"><ele>252.60000000000002</ele><time>2026-04-11T16:13:46Z</time></trkpt><trkpt lat="44.72282696524198" lon="7.9913304267656775"><ele>252.39999999999998</ele><time>2026-04-11T16:13:48Z</time></trkpt><trkpt lat="44.722805035669126" lon="7.991441938889337"><ele>252.2</ele><time>2026-04-11T16:13:49Z</time></trkpt><trkpt lat="44.72277450427952" lon="7.991546040089749"><ele>252.0</ele><time>2026-04-11T16:13:50Z</time></trkpt><trkpt lat="44.72273554618099" lon="7.991693778043004"><ele>254.0</ele><time>2026-04-11T16:13:51Z</time></trkpt><trkpt lat="44.72266560051457" lon="7.991861951356694"><ele>256.0</ele><time>2026-04-11T16:13:53Z</time></trkpt><trkpt lat="44.72264746513679" lon="7.992009654886478"><ele>258.0</ele><time>2026-04-11T16:13:54Z</time></trkpt><trkpt lat="44.72262524895001" lon="7.992150354034997"><ele>260.0</ele><time>2026-04-11T16:13:55Z</time></trkpt><trkpt lat="44.722596258351516" lon="7.992247844919633"><ele>262.0</ele><time>2026-04-11T16:13:56Z</time></trkpt><trkpt lat="44.72255194022491" lon="7.992326746144722"><ele>262.0</ele><time>2026-04-11T16:13:58Z</time></trkpt><trkpt lat="44.72246179202825" lon="7.992335431894297"><ele>262.0</ele><time>2026-04-11T16:14:09Z</time></trkpt><trkpt lat="44.722355991139246" lon="7.992386830103098"><ele>262.0</ele><time>2026-04-11T16:14:11Z</time></trkpt><trkpt lat="44.722289982513374" lon="7.992450828037959"><ele>262.0</ele><time>2026-04-11T16:14:12Z</time></trkpt><trkpt lat="44.72221495848495" lon="7.992501648586684"><ele>262.0</ele><time>2026-04-11T16:14:13Z</time></trkpt><trkpt lat="44.722137374175595" lon="7.992548615410301"><ele>260.8</ele><time>2026-04-11T16:14:14Z</time></trkpt><trkpt lat="44.72205738185789" lon="7.992591401497735"><ele>259.6</ele><time>2026-04-11T16:14:15Z</time></trkpt><trkpt lat="44.72197174894637" lon="7.992643287179427"><ele>258.40000000000003</ele><time>2026-04-11T16:14:16Z</time></trkpt><trkpt lat="44.72189263980118" lon="7.99269939609942"><ele>257.2</ele><time>2026-04-11T16:14:17Z</time></trkpt><trkpt lat="44.721805003866955" lon="7.9927581998391055"><ele>256.0</ele><time>2026-04-11T16:14:18Z</time></trkpt><trkpt lat="44.721704291362514" lon="7.9928113180919675"><ele>255.99999999999997</ele><time>2026-04-11T16:14:19Z</time></trkpt><trkpt lat="44.721610000485946" lon="7.9928579455058495"><ele>256.0</ele><time>2026-04-11T16:14:20Z</time></trkpt><trkpt lat="44.721544683184845" lon="7.992893217231749"><ele>256.0</ele><time>2026-04-11T16:14:21Z</time></trkpt><trkpt lat="44.721461303708104" lon="7.992938037606056"><ele>256.0</ele><time>2026-04-11T16:14:23Z</time></trkpt><trkpt lat="44.72138631514989" lon="7.992993176240922"><ele>255.99999999999997</ele><time>2026-04-11T16:14:26Z</time></trkpt><trkpt lat="44.721297227818724" lon="7.99303144313654"><ele>256.0</ele><time>2026-04-11T16:14:28Z</time></trkpt><trkpt lat="44.72119376305479" lon="7.993080192479136"><ele>256.0</ele><time>2026-04-11T16:14:30Z</time></trkpt><trkpt lat="44.72111297312401" lon="7.993112474155515"><ele>255.99999999999997</ele><time>2026-04-11T16:14:32Z</time></trkpt><trkpt lat="44.721040113222635" lon="7.9931128430393645"><ele>256.0</ele><time>2026-04-11T16:14:35Z</time></trkpt><trkpt lat="44.721005510678644" lon="7.993009409294391"><ele>256.0</ele><time>2026-04-11T16:14:39Z</time></trkpt><trkpt lat="44.721054534762715" lon="7.992951357190447"><ele>255.99999999999997</ele><time>2026-04-11T16:14:41Z</time></trkpt><trkpt lat="44.72111089358695" lon="7.992885534145966"><ele>256.0</ele><time>2026-04-11T16:14:46Z</time></trkpt><trkpt lat="44.72115166053752" lon="7.992817046395771"><ele>256.0</ele><time>2026-04-11T16:14:47Z</time></trkpt><trkpt lat="44.72122369509277" lon="7.9927386404769285"><ele>255.99999999999997</ele><time>2026-04-11T16:14:49Z</time></trkpt><trkpt lat="44.721266211982176" lon="7.992643279456852"><ele>256.0</ele><time>2026-04-11T16:14:58Z</time></trkpt><trkpt lat="44.72121358916087" lon="7.992512309349088"><ele>256.0</ele><time>2026-04-11T16:15:01Z</time></trkpt><trkpt lat="44.72115546866836" lon="7.992458158527754"><ele>256.0</ele><time>2026-04-11T16:15:02Z</time></trkpt><trkpt lat="44.721120149839805" lon="7.992380450868244"><ele>255.99999999999997</ele><time>2026-04-11T16:15:03Z</time></trkpt><trkpt lat="44.72107404309158" lon="7.992265920058909"><ele>256.0</ele><time>2026-04-11T16:15:05Z</time></trkpt><trkpt lat="44.72106515970696" lon="7.992174667578793"><ele>258.66666666666663</ele><time>2026-04-11T16:15:14.001Z</time></trkpt><trkpt lat="44.72114145542078" lon="7.992071424762337"><ele>261.3333333333333</ele><time>2026-04-11T16:15:18.001Z</time></trkpt><trkpt lat="44.721218673475825" lon="7.992012071559858"><ele>264.0</ele><time>2026-04-11T16:15:20.001Z</time></trkpt><trkpt lat="44.72127909057813" lon="7.991980592309709"><ele>266.6666666666667</ele><time>2026-04-11T16:15:28.001Z</time></trkpt><trkpt lat="44.72132988215516" lon="7.991925715023245"><ele>269.33333333333337</ele><time>2026-04-11T16:15:33Z</time></trkpt><trkpt lat="44.72139034628349" lon="7.991866249815357"><ele>272.0</ele><time>2026-04-11T16:15:37Z</time></trkpt><trkpt lat="44.721435171600646" lon="7.991795231108253"><ele>271.99999999999994</ele><time>2026-04-11T16:15:43Z</time></trkpt><trkpt lat="44.72148032286389" lon="7.991706851496339"><ele>272.0</ele><time>2026-04-11T16:15:47Z</time></trkpt><trkpt lat="44.721522308283504" lon="7.991628064449757"><ele>272.0</ele><time>2026-04-11T16:15:50Z</time></trkpt><trkpt lat="44.72156056728799" lon="7.991535518950528"><ele>272.0</ele><time>2026-04-11T16:15:53Z</time></trkpt><trkpt lat="44.72159476023892" lon="7.991459682930417"><ele>272.0</ele><time>2026-04-11T16:15:55Z</time></trkpt><trkpt lat="44.721658625829015" lon="7.991423840679232"><ele>271.99999999999994</ele><time>2026-04-11T16:15:57Z</time></trkpt><trkpt lat="44.72170335801838" lon="7.991311107668177"><ele>272.0</ele><time>2026-04-11T16:16:00Z</time></trkpt><trkpt lat="44.7217553478716" lon="7.99122505653408"><ele>272.1666666666667</ele><time>2026-04-11T16:16:03Z</time></trkpt><trkpt lat="44.7218004331551" lon="7.991133248747253"><ele>272.33333333333337</ele><time>2026-04-11T16:16:06Z</time></trkpt><trkpt lat="44.72185640217698" lon="7.991036693752579"><ele>272.5</ele><time>2026-04-11T16:16:08Z</time></trkpt><trkpt lat="44.72185870347535" lon="7.990931643262146"><ele>272.6666666666667</ele><time>2026-04-11T16:16:10Z</time></trkpt><trkpt lat="44.721905178768566" lon="7.9908247446094895"><ele>272.8333333333333</ele><time>2026-04-11T16:16:12Z</time></trkpt><trkpt lat="44.72195367953607" lon="7.990688994632433"><ele>273.0</ele><time>2026-04-11T16:16:14Z</time></trkpt><trkpt lat="44.722009889553505" lon="7.990561431657175"><ele>273.0</ele><time>2026-04-11T16:16:16Z</time></trkpt><trkpt lat="44.722051468614445" lon="7.990428346621508"><ele>273.0</ele><time>2026-04-11T16:16:18Z</time></trkpt><trkpt lat="44.72205141026466" lon="7.990311952439034"><ele>273.0</ele><time>2026-04-11T16:16:20Z</time></trkpt><trkpt lat="44.72209897120247" lon="7.990181791132861"><ele>273.0</ele><time>2026-04-11T16:16:22Z</time></trkpt><trkpt lat="44.72207725556546" lon="7.990045907261523"><ele>273.0</ele><time>2026-04-11T16:16:24Z</time></trkpt><trkpt lat="44.722083417848275" lon="7.989932382566755"><ele>274.0</ele><time>2026-04-11T16:16:27Z</time></trkpt><trkpt lat="44.722153554921086" lon="7.9899061851099455"><ele>275.0</ele><time>2026-04-11T16:16:30Z</time></trkpt><trkpt lat="44.7222152427729" lon="7.9899529413549955"><ele>276.0</ele><time>2026-04-11T16:16:32Z</time></trkpt><trkpt lat="44.7222981758505" lon="7.98995985607557"><ele>277.0</ele><time>2026-04-11T16:16:35Z</time></trkpt><trkpt lat="44.7223447579122" lon="7.9898676723040385"><ele>278.0</ele><time>2026-04-11T16:16:38Z</time></trkpt><trkpt lat="44.722388748352834" lon="7.9897463901526296"><ele>279.0</ele><time>2026-04-11T16:16:40Z</time></trkpt><trkpt lat="44.72244354946077" lon="7.989663168343179"><ele>279.0</ele><time>2026-04-11T16:16:42Z</time></trkpt><trkpt lat="44.72248596960892" lon="7.989554477292558"><ele>279.0</ele><time>2026-04-11T16:16:44Z</time></trkpt><trkpt lat="44.722547341074424" lon="7.989423638218364"><ele>279.0</ele><time>2026-04-11T16:16:47Z</time></trkpt><trkpt lat="44.722596807377" lon="7.9893428807386835"><ele>279.0</ele><time>2026-04-11T16:16:49Z</time></trkpt><trkpt lat="44.72264302081095" lon="7.989253374751235"><ele>279.0</ele><time>2026-04-11T16:16:51Z</time></trkpt><trkpt lat="44.722635250812736" lon="7.98915600980119"><ele>279.0</ele><time>2026-04-11T16:16:53Z</time></trkpt><trkpt lat="44.72264001766815" lon="7.989052599690791"><ele>279.2</ele><time>2026-04-11T16:16:55Z</time></trkpt><trkpt lat="44.7226793925082" lon="7.9889216066681294"><ele>279.4</ele><time>2026-04-11T16:16:58Z</time></trkpt><trkpt lat="44.722667332202235" lon="7.988786782509735"><ele>279.6</ele><time>2026-04-11T16:17:01Z</time></trkpt><trkpt lat="44.72263413759645" lon="7.988665750201441"><ele>279.8</ele><time>2026-04-11T16:17:04Z</time></trkpt><trkpt lat="44.72264323067608" lon="7.988527751886295"><ele>280.0</ele><time>2026-04-11T16:17:06Z</time></trkpt><trkpt lat="44.722695343776195" lon="7.988446759262685"><ele>280.0</ele><time>2026-04-11T16:17:09Z</time></trkpt><trkpt lat="44.722705587888896" lon="7.988323734673589"><ele>280.0</ele><time>2026-04-11T16:17:12Z</time></trkpt><trkpt lat="44.722719796913694" lon="7.988217947511926"><ele>280.0</ele><time>2026-04-11T16:17:14Z</time></trkpt><trkpt lat="44.72269877824831" lon="7.988110866292533"><ele>280.0</ele><time>2026-04-11T16:17:20.001Z</time></trkpt><trkpt lat="44.72261593506477" lon="7.988016324728918"><ele>280.0</ele><time>2026-04-11T16:17:23.001Z</time></trkpt><trkpt lat="44.722548077841424" lon="7.987942729767745"><ele>280.0</ele><time>2026-04-11T16:17:26.001Z</time></trkpt><trkpt lat="44.7224924243322" lon="7.987857656676344"><ele>280.0</ele><time>2026-04-11T16:17:29.001Z</time></trkpt><trkpt lat="44.722468998453024" lon="7.987762105680513"><ele>280.0</ele><time>2026-04-11T16:17:32.001Z</time></trkpt><trkpt lat="44.72253269023359" lon="7.9876561674131175"><ele>280.0</ele><time>2026-04-11T16:17:35.001Z</time></trkpt><trkpt lat="44.7225945221802" lon="7.987610380026644"><ele>280.0</ele><time>2026-04-11T16:17:36.001Z</time></trkpt><trkpt lat="44.72269980944532" lon="7.9875380789885035"><ele>280.0</ele><time>2026-04-11T16:17:38.001Z</time></trkpt><trkpt lat="44.72276792480536" lon="7.9874853333643685"><ele>280.0</ele><time>2026-04-11T16:17:39Z</time></trkpt><trkpt lat="44.72283422714871" lon="7.987447520307463"><ele>279.6</ele><time>2026-04-11T16:17:40Z</time></trkpt><trkpt lat="44.722898118583046" lon="7.9874118303926736"><ele>279.2</ele><time>2026-04-11T16:17:41Z</time></trkpt><trkpt lat="44.72300021009694" lon="7.987355646213922"><ele>278.8</ele><time>2026-04-11T16:17:43Z</time></trkpt><trkpt lat="44.72308948752356" lon="7.987290232036101"><ele>278.4</ele><time>2026-04-11T16:17:45Z</time></trkpt><trkpt lat="44.72318963882279" lon="7.9871726343643346"><ele>278.0</ele><time>2026-04-11T16:17:47Z</time></trkpt><trkpt lat="44.723235301768675" lon="7.987085464773835"><ele>278.0</ele><time>2026-04-11T16:17:48Z</time></trkpt><trkpt lat="44.723274263164406" lon="7.987004292865274"><ele>278.0</ele><time>2026-04-11T16:17:49Z</time></trkpt><trkpt lat="44.723315107218994" lon="7.98692623027219"><ele>278.0</ele><time>2026-04-11T16:17:50Z</time></trkpt><trkpt lat="44.723361080351886" lon="7.98682267390479"><ele>278.0</ele><time>2026-04-11T16:17:52Z</time></trkpt><trkpt lat="44.72342278784744" lon="7.986725718866494"><ele>278.0</ele><time>2026-04-11T16:17:56Z</time></trkpt><trkpt lat="44.72347033843179" lon="7.9866346967576325"><ele>278.0</ele><time>2026-04-11T16:17:58Z</time></trkpt><trkpt lat="44.72349264401775" lon="7.9865288087134365"><ele>277.0</ele><time>2026-04-11T16:18:00Z</time></trkpt><trkpt lat="44.723506148801796" lon="7.986369515082915"><ele>276.0</ele><time>2026-04-11T16:18:02Z</time></trkpt><trkpt lat="44.72350773712681" lon="7.986259967933437"><ele>275.0</ele><time>2026-04-11T16:18:03Z</time></trkpt><trkpt lat="44.72349612941846" lon="7.986119744208518"><ele>274.0</ele><time>2026-04-11T16:18:04Z</time></trkpt><trkpt lat="44.723470408025904" lon="7.98598715911938"><ele>273.0</ele><time>2026-04-11T16:18:05Z</time></trkpt><trkpt lat="44.72342571727417" lon="7.985845882632851"><ele>271.4</ele><time>2026-04-11T16:18:06Z</time></trkpt><trkpt lat="44.72336428955465" lon="7.985692481560781"><ele>269.8</ele><time>2026-04-11T16:18:07Z</time></trkpt><trkpt lat="44.72331242698376" lon="7.985571793803328"><ele>268.2</ele><time>2026-04-11T16:18:08Z</time></trkpt><trkpt lat="44.72328575909544" lon="7.985471794337606"><ele>266.6</ele><time>2026-04-11T16:18:09Z</time></trkpt><trkpt lat="44.7232818946686" lon="7.985370638939584"><ele>265.0</ele><time>2026-04-11T16:18:10Z</time></trkpt><trkpt lat="44.72330122524616" lon="7.98524644272326"><ele>265.0</ele><time>2026-04-11T16:18:11Z</time></trkpt><trkpt lat="44.723326390883095" lon="7.985132221519093"><ele>265.0</ele><time>2026-04-11T16:18:12Z</time></trkpt><trkpt lat="44.72334698338978" lon="7.985026902133445"><ele>265.0</ele><time>2026-04-11T16:18:13Z</time></trkpt><trkpt lat="44.723369415785754" lon="7.984916521098933"><ele>265.0</ele><time>2026-04-11T16:18:14Z</time></trkpt><trkpt lat="44.72338708106425" lon="7.984818690227628"><ele>265.0</ele><time>2026-04-11T16:18:15Z</time></trkpt><trkpt lat="44.72340937460007" lon="7.984718012323213"><ele>265.0</ele><time>2026-04-11T16:18:16Z</time></trkpt><trkpt lat="44.72342989197886" lon="7.984631003107274"><ele>264.0</ele><time>2026-04-11T16:18:17Z</time></trkpt><trkpt lat="44.72344515819495" lon="7.984543534215626"><ele>263.0</ele><time>2026-04-11T16:18:18Z</time></trkpt><trkpt lat="44.72346650436058" lon="7.98444363973746"><ele>262.0</ele><time>2026-04-11T16:18:19Z</time></trkpt><trkpt lat="44.72348766204722" lon="7.984352544882157"><ele>261.0</ele><time>2026-04-11T16:18:20Z</time></trkpt><trkpt lat="44.72350021248925" lon="7.98425698478131"><ele>260.0</ele><time>2026-04-11T16:18:21Z</time></trkpt><trkpt lat="44.72350819792541" lon="7.98413581361192"><ele>259.0</ele><time>2026-04-11T16:18:22Z</time></trkpt><trkpt lat="44.723504183361406" lon="7.98399996531619"><ele>258.3333333333333</ele><time>2026-04-11T16:18:23Z</time></trkpt><trkpt lat="44.72349747778581" lon="7.98385853148925"><ele>257.66666666666663</ele><time>2026-04-11T16:18:24Z</time></trkpt><trkpt lat="44.723494366639954" lon="7.983733598175"><ele>257.0</ele><time>2026-04-11T16:18:25Z</time></trkpt><trkpt lat="44.723488066817545" lon="7.983620911772331"><ele>256.3333333333333</ele><time>2026-04-11T16:18:26Z</time></trkpt><trkpt lat="44.723482108961335" lon="7.983521916108091"><ele>255.66666666666666</ele><time>2026-04-11T16:18:27Z</time></trkpt><trkpt lat="44.72347605100855" lon="7.983405135130716"><ele>255.0</ele><time>2026-04-11T16:18:28Z</time></trkpt><trkpt lat="44.72346872786193" lon="7.983306567837884"><ele>254.6</ele><time>2026-04-11T16:18:29Z</time></trkpt><trkpt lat="44.72345745964144" lon="7.983189836354712"><ele>254.2</ele><time>2026-04-11T16:18:30Z</time></trkpt><trkpt lat="44.723445386295666" lon="7.983056598808429"><ele>253.8</ele><time>2026-04-11T16:18:31Z</time></trkpt><trkpt lat="44.723437254246406" lon="7.982900613714317"><ele>253.4</ele><time>2026-04-11T16:18:32Z</time></trkpt><trkpt lat="44.72342905268639" lon="7.982742751940935"><ele>253.0</ele><time>2026-04-11T16:18:33Z</time></trkpt><trkpt lat="44.72342008539646" lon="7.982548225497779"><ele>252.75</ele><time>2026-04-11T16:18:34Z</time></trkpt><trkpt lat="44.72340803381053" lon="7.98234287284898"><ele>252.5</ele><time>2026-04-11T16:18:35Z</time></trkpt><trkpt lat="44.723398226717705" lon="7.982169435748007"><ele>252.25</ele><time>2026-04-11T16:18:36Z</time></trkpt><trkpt lat="44.72339115304546" lon="7.9820140464436244"><ele>252.0</ele><time>2026-04-11T16:18:37Z</time></trkpt><trkpt lat="44.723387631350775" lon="7.981892007432543"><ele>252.0</ele><time>2026-04-11T16:18:38Z</time></trkpt><trkpt lat="44.72338398827998" lon="7.981802258640597"><ele>252.0</ele><time>2026-04-11T16:18:39Z</time></trkpt><trkpt lat="44.72337819317219" lon="7.981686454679499"><ele>252.0</ele><time>2026-04-11T16:18:47Z</time></trkpt><trkpt lat="44.7233835576673" lon="7.981574521642222"><ele>252.0</ele><time>2026-04-11T16:18:48Z</time></trkpt><trkpt lat="44.72340780812615" lon="7.98145729361675"><ele>252.0</ele><time>2026-04-11T16:18:49Z</time></trkpt><trkpt lat="44.72342103190622" lon="7.981364465747995"><ele>252.0</ele><time>2026-04-11T16:18:50Z</time></trkpt><trkpt lat="44.72343669116103" lon="7.981273498942612"><ele>252.0</ele><time>2026-04-11T16:18:51Z</time></trkpt><trkpt lat="44.723456170665244" lon="7.981174283742328"><ele>252.16666666666666</ele><time>2026-04-11T16:18:52Z</time></trkpt><trkpt lat="44.723479276440536" lon="7.981080316055361"><ele>252.33333333333331</ele><time>2026-04-11T16:18:53Z</time></trkpt><trkpt lat="44.723508991768185" lon="7.980971438981956"><ele>252.5</ele><time>2026-04-11T16:18:54Z</time></trkpt><trkpt lat="44.723527946952416" lon="7.980883135236654"><ele>252.66666666666666</ele><time>2026-04-11T16:18:55Z</time></trkpt><trkpt lat="44.7235610893419" lon="7.980733553810672"><ele>252.83333333333331</ele><time>2026-04-11T16:18:57Z</time></trkpt><trkpt lat="44.72361519825665" lon="7.980649439931602"><ele>253.0</ele><time>2026-04-11T16:18:59Z</time></trkpt><trkpt lat="44.72384128612344" lon="7.980690090456139"><ele>251.60000000000002</ele><time>2026-04-11T16:19:02Z</time></trkpt><trkpt lat="44.723938845489165" lon="7.980711794238635"><ele>250.20000000000002</ele><time>2026-04-11T16:19:03Z</time></trkpt><trkpt lat="44.72402926136875" lon="7.980740163900483"><ele>248.8</ele><time>2026-04-11T16:19:04Z</time></trkpt><trkpt lat="44.72412040886262" lon="7.980759531266198"><ele>247.4</ele><time>2026-04-11T16:19:05Z</time></trkpt><trkpt lat="44.72421389925362" lon="7.980781376438136"><ele>246.0</ele><time>2026-04-11T16:19:06Z</time></trkpt><trkpt lat="44.72430896786023" lon="7.9808001542680165"><ele>244.4</ele><time>2026-04-11T16:19:07Z</time></trkpt><trkpt lat="44.72440957339227" lon="7.980824885818172"><ele>242.8</ele><time>2026-04-11T16:19:08Z</time></trkpt><trkpt lat="44.724511118103806" lon="7.980855520391496"><ele>241.20000000000002</ele><time>2026-04-11T16:19:09Z</time></trkpt><trkpt lat="44.7246113960097" lon="7.980884950134253"><ele>239.60000000000002</ele><time>2026-04-11T16:19:10Z</time></trkpt><trkpt lat="44.72471302963992" lon="7.98090161651379"><ele>238.0</ele><time>2026-04-11T16:19:11Z</time></trkpt><trkpt lat="44.72481223427125" lon="7.980907992996124"><ele>238.0</ele><time>2026-04-11T16:19:12Z</time></trkpt><trkpt lat="44.72491678148082" lon="7.980912034139952"><ele>238.0</ele><time>2026-04-11T16:19:13Z</time></trkpt><trkpt lat="44.725023904174435" lon="7.980923117944425"><ele>238.0</ele><time>2026-04-11T16:19:14Z</time></trkpt><trkpt lat="44.72513977733858" lon="7.980928302379078"><ele>238.0</ele><time>2026-04-11T16:19:15Z</time></trkpt><trkpt lat="44.725263144034486" lon="7.980918273666687"><ele>235.75</ele><time>2026-04-11T16:19:16Z</time></trkpt><trkpt lat="44.72539173404094" lon="7.980897421629147"><ele>233.5</ele><time>2026-04-11T16:19:17Z</time></trkpt><trkpt lat="44.72551020171086" lon="7.980849556028791"><ele>231.25</ele><time>2026-04-11T16:19:18Z</time></trkpt><trkpt lat="44.725621133893924" lon="7.980838509439248"><ele>229.0</ele><time>2026-04-11T16:19:19Z</time></trkpt><trkpt lat="44.725726519677636" lon="7.9808219780514325"><ele>229.0</ele><time>2026-04-11T16:19:20Z</time></trkpt><trkpt lat="44.725830617423625" lon="7.980823394018814"><ele>228.99999999999997</ele><time>2026-04-11T16:19:21Z</time></trkpt><trkpt lat="44.72593577384941" lon="7.98078956585092"><ele>228.99999999999997</ele><time>2026-04-11T16:19:22Z</time></trkpt><trkpt lat="44.72603822789089" lon="7.9807790993633105"><ele>229.0</ele><time>2026-04-11T16:19:23Z</time></trkpt><trkpt lat="44.72612916044617" lon="7.980768304951948"><ele>229.0</ele><time>2026-04-11T16:19:24Z</time></trkpt><trkpt lat="44.726216891546585" lon="7.980757958874341"><ele>227.99999999999997</ele><time>2026-04-11T16:19:25Z</time></trkpt><trkpt lat="44.726293292514825" lon="7.980749192383019"><ele>227.0</ele><time>2026-04-11T16:19:26Z</time></trkpt><trkpt lat="44.72637270514159" lon="7.98073704300041"><ele>226.0</ele><time>2026-04-11T16:19:27Z</time></trkpt><trkpt lat="44.72645237620124" lon="7.980729226794581"><ele>225.0</ele><time>2026-04-11T16:19:28Z</time></trkpt><trkpt lat="44.726530428315" lon="7.980724703500236"><ele>223.99999999999997</ele><time>2026-04-11T16:19:29Z</time></trkpt><trkpt lat="44.72661083494789" lon="7.980714791639625"><ele>223.0</ele><time>2026-04-11T16:19:30Z</time></trkpt><trkpt lat="44.726701199607696" lon="7.980735534091074"><ele>222.99999999999997</ele><time>2026-04-11T16:19:31Z</time></trkpt><trkpt lat="44.726793683002846" lon="7.98073840934555"><ele>223.0</ele><time>2026-04-11T16:19:32Z</time></trkpt><trkpt lat="44.72687924248563" lon="7.980741955312694"><ele>223.0</ele><time>2026-04-11T16:19:33Z</time></trkpt><trkpt lat="44.726967507183915" lon="7.980745583160036"><ele>223.0</ele><time>2026-04-11T16:19:34Z</time></trkpt><trkpt lat="44.72705109738698" lon="7.980727207559556"><ele>222.99999999999997</ele><time>2026-04-11T16:19:35Z</time></trkpt><trkpt lat="44.72713730999306" lon="7.980738348068958"><ele>223.0</ele><time>2026-04-11T16:19:36Z</time></trkpt><trkpt lat="44.7272108844683" lon="7.980743416905117"><ele>221.66666666666666</ele><time>2026-04-11T16:19:37Z</time></trkpt><trkpt lat="44.72728252227267" lon="7.98074327581249"><ele>220.33333333333331</ele><time>2026-04-11T16:19:38.001Z</time></trkpt><trkpt lat="44.72735514297613" lon="7.980720822769251"><ele>219.0</ele><time>2026-04-11T16:19:39.001Z</time></trkpt><trkpt lat="44.7274333326509" lon="7.980658908697953"><ele>217.66666666666669</ele><time>2026-04-11T16:19:40.001Z</time></trkpt><trkpt lat="44.72751174437202" lon="7.980588403213092"><ele>216.33333333333334</ele><time>2026-04-11T16:19:41.001Z</time></trkpt><trkpt lat="44.72758970407077" lon="7.980525353928272"><ele>215.0</ele><time>2026-04-11T16:19:42.001Z</time></trkpt><trkpt lat="44.72766294649526" lon="7.980467184245574"><ele>213.66666666666669</ele><time>2026-04-11T16:19:43.001Z</time></trkpt><trkpt lat="44.72773512812002" lon="7.980407520728439"><ele>212.33333333333334</ele><time>2026-04-11T16:19:44.001Z</time></trkpt><trkpt lat="44.72779527098292" lon="7.980342865049043"><ele>211.0</ele><time>2026-04-11T16:19:45Z</time></trkpt><trkpt lat="44.72786550592729" lon="7.980265635319956"><ele>209.66666666666669</ele><time>2026-04-11T16:19:46Z</time></trkpt><trkpt lat="44.72792354067274" lon="7.980180018036845"><ele>208.33333333333334</ele><time>2026-04-11T16:19:47Z</time></trkpt><trkpt lat="44.72797668013182" lon="7.9800966091143"><ele>207.0</ele><time>2026-04-11T16:19:48Z</time></trkpt><trkpt lat="44.728029624331256" lon="7.9800161388858735"><ele>206.5</ele><time>2026-04-11T16:19:49Z</time></trkpt><trkpt lat="44.72807836986253" lon="7.97993604149293"><ele>206.0</ele><time>2026-04-11T16:19:50Z</time></trkpt><trkpt lat="44.72814363466907" lon="7.979879900212002"><ele>205.5</ele><time>2026-04-11T16:19:51Z</time></trkpt><trkpt lat="44.72821370955032" lon="7.979812037556884"><ele>205.0</ele><time>2026-04-11T16:19:52Z</time></trkpt><trkpt lat="44.72828404157427" lon="7.9797606423345995"><ele>204.5</ele><time>2026-04-11T16:19:53Z</time></trkpt><trkpt lat="44.728360274781906" lon="7.97971444513574"><ele>204.0</ele><time>2026-04-11T16:19:54Z</time></trkpt><trkpt lat="44.72842250803711" lon="7.97966931248496"><ele>204.0</ele><time>2026-04-11T16:19:55Z</time></trkpt><trkpt lat="44.72852987699632" lon="7.9797780866578885"><ele>204.0</ele><time>2026-04-11T16:19:57Z</time></trkpt><trkpt lat="44.72862428383405" lon="7.979827818192695"><ele>204.0</ele><time>2026-04-11T16:19:58Z</time></trkpt><trkpt lat="44.7287038233957" lon="7.97989690378626"><ele>204.0</ele><time>2026-04-11T16:19:59Z</time></trkpt><trkpt lat="44.728797887878116" lon="7.979932028685355"><ele>204.0</ele><time>2026-04-11T16:20:00Z</time></trkpt><trkpt lat="44.72888633187588" lon="7.979922857367116"><ele>203.0</ele><time>2026-04-11T16:20:01Z</time></trkpt><trkpt lat="44.728964367356376" lon="7.9798848888674705"><ele>202.0</ele><time>2026-04-11T16:20:02Z</time></trkpt><trkpt lat="44.72905564360728" lon="7.979833521464623"><ele>201.0</ele><time>2026-04-11T16:20:03Z</time></trkpt><trkpt lat="44.72909218117411" lon="7.979691095390034"><ele>200.0</ele><time>2026-04-11T16:20:04Z</time></trkpt><trkpt lat="44.72912520434886" lon="7.979530497891432"><ele>199.0</ele><time>2026-04-11T16:20:05Z</time></trkpt><trkpt lat="44.729153421588464" lon="7.97939220834803"><ele>199.0</ele><time>2026-04-11T16:20:06Z</time></trkpt><trkpt lat="44.72919992362728" lon="7.979316767893216"><ele>199.0</ele><time>2026-04-11T16:20:07Z</time></trkpt><trkpt lat="44.729293905039626" lon="7.979287390530036"><ele>199.0</ele><time>2026-04-11T16:20:08Z</time></trkpt><trkpt lat="44.72942522523779" lon="7.9792247204503335"><ele>199.0</ele><time>2026-04-11T16:20:09Z</time></trkpt><trkpt lat="44.72957754297759" lon="7.979165482482245"><ele>197.66666666666666</ele><time>2026-04-11T16:20:10Z</time></trkpt><trkpt lat="44.72976206459906" lon="7.9790798612518286"><ele>196.33333333333331</ele><time>2026-04-11T16:20:11Z</time></trkpt><trkpt lat="44.729942874505674" lon="7.979050836357221"><ele>195.0</ele><time>2026-04-11T16:20:12Z</time></trkpt><trkpt lat="44.73008101875407" lon="7.979032671487636"><ele>195.0</ele><time>2026-04-11T16:20:13Z</time></trkpt><trkpt lat="44.73019433734547" lon="7.97901599210891"><ele>195.0</ele><time>2026-04-11T16:20:14Z</time></trkpt><trkpt lat="44.73027440282556" lon="7.979002053131388"><ele>195.0</ele><time>2026-04-11T16:20:15Z</time></trkpt><trkpt lat="44.73035002487757" lon="7.978988887731952"><ele>195.0</ele><time>2026-04-11T16:20:17Z</time></trkpt><trkpt lat="44.73038696868138" lon="7.978824970206603"><ele>195.0</ele><time>2026-04-11T16:20:18Z</time></trkpt><trkpt lat="44.73040368163649" lon="7.97868170105968"><ele>195.33333333333331</ele><time>2026-04-11T16:20:19Z</time></trkpt><trkpt lat="44.73042594368405" lon="7.9784908633066"><ele>195.66666666666666</ele><time>2026-04-11T16:20:20Z</time></trkpt><trkpt lat="44.730453141386576" lon="7.9782644204474975"><ele>196.0</ele><time>2026-04-11T16:20:21Z</time></trkpt><trkpt lat="44.730485465759294" lon="7.977998736721266"><ele>196.0</ele><time>2026-04-11T16:20:22Z</time></trkpt><trkpt lat="44.730520585757795" lon="7.977711844620668"><ele>196.0</ele><time>2026-04-11T16:20:23Z</time></trkpt><trkpt lat="44.73055775061434" lon="7.977408248235513"><ele>196.0</ele><time>2026-04-11T16:20:24Z</time></trkpt><trkpt lat="44.73059837408214" lon="7.977076398789795"><ele>197.0</ele><time>2026-04-11T16:20:25Z</time></trkpt><trkpt lat="44.730641173835735" lon="7.976729487348237"><ele>198.0</ele><time>2026-04-11T16:20:26Z</time></trkpt><trkpt lat="44.730662750094936" lon="7.976436588480237"><ele>198.0</ele><time>2026-04-11T16:20:27Z</time></trkpt><trkpt lat="44.73070909140092" lon="7.976221696177454"><ele>198.0</ele><time>2026-04-11T16:20:28Z</time></trkpt><trkpt lat="44.73073378581996" lon="7.976045816036661"><ele>198.0</ele><time>2026-04-11T16:20:29Z</time></trkpt><trkpt lat="44.73075249874927" lon="7.975907542151128"><ele>198.0</ele><time>2026-04-11T16:20:30Z</time></trkpt><trkpt lat="44.730753888898754" lon="7.975795949629685"><ele>198.0</ele><time>2026-04-11T16:20:31Z</time></trkpt><trkpt lat="44.73076250245943" lon="7.975699569451256"><ele>198.0</ele><time>2026-04-11T16:20:32Z</time></trkpt><trkpt lat="44.73078146481826" lon="7.975565994471885"><ele>198.0</ele><time>2026-04-11T16:20:34Z</time></trkpt><trkpt lat="44.730779023416055" lon="7.975676393706516"><ele>198.0</ele><time>2026-04-11T16:20:40Z</time></trkpt><trkpt lat="44.730742903911896" lon="7.9757729602070135"><ele>198.0</ele><time>2026-04-11T16:20:41Z</time></trkpt><trkpt lat="44.73071697028226" lon="7.975856860885495"><ele>198.0</ele><time>2026-04-11T16:20:42Z</time></trkpt><trkpt lat="44.730658641009164" lon="7.975903874318098"><ele>198.0</ele><time>2026-04-11T16:20:43Z</time></trkpt><trkpt lat="44.7305774476567" lon="7.975925015054138"><ele>198.0</ele><time>2026-04-11T16:20:44Z</time></trkpt><trkpt lat="44.730500249638375" lon="7.975930956445083"><ele>198.0</ele><time>2026-04-11T16:20:45Z</time></trkpt><trkpt lat="44.73042135405548" lon="7.975960054698324"><ele>198.0</ele><time>2026-04-11T16:20:47Z</time></trkpt><trkpt lat="44.730286268598185" lon="7.976007573598627"><ele>198.0</ele><time>2026-04-11T16:20:49Z</time></trkpt><trkpt lat="44.730183049594615" lon="7.976047812335359"><ele>198.25</ele><time>2026-04-11T16:20:50Z</time></trkpt><trkpt lat="44.73008607984162" lon="7.976096254352091"><ele>198.5</ele><time>2026-04-11T16:20:51Z</time></trkpt><trkpt lat="44.729974389801555" lon="7.976136760825324"><ele>198.75</ele><time>2026-04-11T16:20:52Z</time></trkpt><trkpt lat="44.72985140109103" lon="7.976160272475916"><ele>199.0</ele><time>2026-04-11T16:20:53Z</time></trkpt><trkpt lat="44.72971696282832" lon="7.9761531575277855"><ele>199.0</ele><time>2026-04-11T16:20:54Z</time></trkpt><trkpt lat="44.72954288087736" lon="7.976135826124698"><ele>199.0</ele><time>2026-04-11T16:20:55Z</time></trkpt><trkpt lat="44.72938635143947" lon="7.976118682321592"><ele>199.0</ele><time>2026-04-11T16:20:56Z</time></trkpt><trkpt lat="44.729263478060055" lon="7.9760880301658075"><ele>200.75</ele><time>2026-04-11T16:20:57Z</time></trkpt><trkpt lat="44.72914911092477" lon="7.976062632578243"><ele>202.5</ele><time>2026-04-11T16:20:58Z</time></trkpt><trkpt lat="44.72904160573121" lon="7.976000811986184"><ele>204.25</ele><time>2026-04-11T16:20:59Z</time></trkpt><trkpt lat="44.728919684814784" lon="7.975921106619899"><ele>206.0</ele><time>2026-04-11T16:21:00Z</time></trkpt><trkpt lat="44.728779342229046" lon="7.975850045479148"><ele>207.0</ele><time>2026-04-11T16:21:01Z</time></trkpt><trkpt lat="44.728637154140536" lon="7.975829847575615"><ele>208.0</ele><time>2026-04-11T16:21:02Z</time></trkpt><trkpt lat="44.72850623317359" lon="7.975816082018733"><ele>209.0</ele><time>2026-04-11T16:21:03Z</time></trkpt><trkpt lat="44.728367653487325" lon="7.975786600676158"><ele>210.0</ele><time>2026-04-11T16:21:04Z</time></trkpt><trkpt lat="44.728237737504294" lon="7.975760448180781"><ele>212.0</ele><time>2026-04-11T16:21:05Z</time></trkpt><trkpt lat="44.728115695178666" lon="7.975746492791061"><ele>214.0</ele><time>2026-04-11T16:21:06Z</time></trkpt><trkpt lat="44.727975666660186" lon="7.975745809993563"><ele>216.0</ele><time>2026-04-11T16:21:07Z</time></trkpt><trkpt lat="44.72786496168422" lon="7.975760404330455"><ele>218.0</ele><time>2026-04-11T16:21:08Z</time></trkpt><trkpt lat="44.72775446041956" lon="7.975767036339983"><ele>220.4</ele><time>2026-04-11T16:21:09Z</time></trkpt><trkpt lat="44.72764673914018" lon="7.97578185067011"><ele>222.8</ele><time>2026-04-11T16:21:10Z</time></trkpt><trkpt lat="44.72754787819063" lon="7.9758116014352405"><ele>225.2</ele><time>2026-04-11T16:21:11Z</time></trkpt><trkpt lat="44.72747469432947" lon="7.9758290047854485"><ele>227.6</ele><time>2026-04-11T16:21:12Z</time></trkpt><trkpt lat="44.72739579271048" lon="7.975820537356461"><ele>230.0</ele><time>2026-04-11T16:21:14Z</time></trkpt><trkpt lat="44.72727590322837" lon="7.975841684571547"><ele>230.0</ele><time>2026-04-11T16:21:18.001Z</time></trkpt><trkpt lat="44.72720002220412" lon="7.975834180582897"><ele>230.0</ele><time>2026-04-11T16:21:20.001Z</time></trkpt><trkpt lat="44.7271445170251" lon="7.975658688310227"><ele>230.0</ele><time>2026-04-11T16:21:22.001Z</time></trkpt><trkpt lat="44.72712817000846" lon="7.975532293126794"><ele>230.0</ele><time>2026-04-11T16:21:23.001Z</time></trkpt><trkpt lat="44.727100932503326" lon="7.975393285804714"><ele>230.0</ele><time>2026-04-11T16:21:24.001Z</time></trkpt><trkpt lat="44.72707148013182" lon="7.975247188873099"><ele>230.0</ele><time>2026-04-11T16:21:25.001Z</time></trkpt><trkpt lat="44.72704000235345" lon="7.975094611183221"><ele>230.0</ele><time>2026-04-11T16:21:26.001Z</time></trkpt><trkpt lat="44.727013436584265" lon="7.974960488786464"><ele>230.0</ele><time>2026-04-11T16:21:27.001Z</time></trkpt><trkpt lat="44.726983236233515" lon="7.9748118532179895"><ele>230.0</ele><time>2026-04-11T16:21:28.001Z</time></trkpt><trkpt lat="44.72696013787798" lon="7.9746997474077945"><ele>230.0</ele><time>2026-04-11T16:21:29.001Z</time></trkpt><trkpt lat="44.72694007030766" lon="7.974598063756215"><ele>231.2</ele><time>2026-04-11T16:21:30.001Z</time></trkpt><trkpt lat="44.72690176468722" lon="7.974455222441411"><ele>232.4</ele><time>2026-04-11T16:21:32.001Z</time></trkpt><trkpt lat="44.7268301965625" lon="7.974435133670098"><ele>233.60000000000002</ele><time>2026-04-11T16:21:34.001Z</time></trkpt><trkpt lat="44.72675746759583" lon="7.974415172877207"><ele>234.8</ele><time>2026-04-11T16:21:37.001Z</time></trkpt><trkpt lat="44.7267132248359" lon="7.974230313601109"><ele>236.0</ele><time>2026-04-11T16:21:39.001Z</time></trkpt><trkpt lat="44.726695244051896" lon="7.9741330317624115"><ele>236.66666666666669</ele><time>2026-04-11T16:21:40.001Z</time></trkpt><trkpt lat="44.72662753827458" lon="7.974117813527195"><ele>237.33333333333334</ele><time>2026-04-11T16:21:42.001Z</time></trkpt><trkpt lat="44.72657157196906" lon="7.974164229907374"><ele>238.0</ele><time>2026-04-11T16:21:43.001Z</time></trkpt><trkpt lat="44.72650763208398" lon="7.974241465002582"><ele>238.66666666666669</ele><time>2026-04-11T16:21:45.001Z</time></trkpt><trkpt lat="44.72641744007318" lon="7.974211877781055"><ele>239.33333333333334</ele><time>2026-04-11T16:21:56Z</time></trkpt><trkpt lat="44.7263835860393" lon="7.9741023598563885"><ele>240.0</ele><time>2026-04-11T16:21:58Z</time></trkpt><trkpt lat="44.726361792261656" lon="7.97401910995602"><ele>240.0</ele><time>2026-04-11T16:22:00Z</time></trkpt><trkpt lat="44.72632939952356" lon="7.973930743550391"><ele>240.0</ele><time>2026-04-11T16:22:04Z</time></trkpt><trkpt lat="44.72630062387781" lon="7.973847210992318"><ele>240.0</ele><time>2026-04-11T16:22:07Z</time></trkpt><trkpt lat="44.72627971930896" lon="7.973737500974218"><ele>240.0</ele><time>2026-04-11T16:22:10Z</time></trkpt><trkpt lat="44.72624118269799" lon="7.973645632584323"><ele>240.0</ele><time>2026-04-11T16:22:13Z</time></trkpt><trkpt lat="44.72622345164206" lon="7.973552945217147"><ele>240.0</ele><time>2026-04-11T16:22:16Z</time></trkpt><trkpt lat="44.72619340197814" lon="7.973447927276287"><ele>240.0</ele><time>2026-04-11T16:22:20Z</time></trkpt><trkpt lat="44.726163938541795" lon="7.9733355305955085"><ele>240.0</ele><time>2026-04-11T16:22:23Z</time></trkpt><trkpt lat="44.72613835004411" lon="7.973210065064833"><ele>240.0</ele><time>2026-04-11T16:22:25Z</time></trkpt><trkpt lat="44.72612159054825" lon="7.973066916934185"><ele>240.0</ele><time>2026-04-11T16:22:27Z</time></trkpt><trkpt lat="44.726089259181435" lon="7.972925394853459"><ele>240.0</ele><time>2026-04-11T16:22:29Z</time></trkpt><trkpt lat="44.726053507801055" lon="7.972775431270412"><ele>240.0</ele><time>2026-04-11T16:22:31Z</time></trkpt><trkpt lat="44.726036204226666" lon="7.972688883492856"><ele>236.0</ele><time>2026-04-11T16:22:32Z</time></trkpt><trkpt lat="44.72599647900069" lon="7.972521023873907"><ele>232.0</ele><time>2026-04-11T16:22:34Z</time></trkpt><trkpt lat="44.72597856915096" lon="7.972423407819964"><ele>228.0</ele><time>2026-04-11T16:22:35Z</time></trkpt><trkpt lat="44.72595468204614" lon="7.972318260039233"><ele>224.0</ele><time>2026-04-11T16:22:36Z</time></trkpt><trkpt lat="44.72593467419717" lon="7.972228518493412"><ele>220.0</ele><time>2026-04-11T16:22:37Z</time></trkpt><trkpt lat="44.72590214248" lon="7.97205471347987"><ele>219.99999999999997</ele><time>2026-04-11T16:22:39Z</time></trkpt><trkpt lat="44.72588737584445" lon="7.9719671075777505"><ele>220.0</ele><time>2026-04-11T16:22:40Z</time></trkpt><trkpt lat="44.725864829653034" lon="7.9718484309574"><ele>220.0</ele><time>2026-04-11T16:22:42Z</time></trkpt><trkpt lat="44.72584681315037" lon="7.971748466820258"><ele>220.0</ele><time>2026-04-11T16:22:44Z</time></trkpt><trkpt lat="44.72587094900639" lon="7.971594868760505"><ele>219.99999999999997</ele><time>2026-04-11T16:22:48Z</time></trkpt><trkpt lat="44.725957933985484" lon="7.971525167645668"><ele>220.0</ele><time>2026-04-11T16:22:49Z</time></trkpt><trkpt lat="44.72607824864157" lon="7.971499027802281"><ele>218.33333333333331</ele><time>2026-04-11T16:22:50Z</time></trkpt><trkpt lat="44.726196002665205" lon="7.9714108783185385"><ele>216.66666666666669</ele><time>2026-04-11T16:22:51Z</time></trkpt><trkpt lat="44.726328525903256" lon="7.97131167248695"><ele>215.0</ele><time>2026-04-11T16:22:52Z</time></trkpt><trkpt lat="44.726477420238126" lon="7.9712002113010785"><ele>215.0</ele><time>2026-04-11T16:22:53Z</time></trkpt><trkpt lat="44.7266248821176" lon="7.971068950859823"><ele>215.0</ele><time>2026-04-11T16:22:54Z</time></trkpt><trkpt lat="44.72678969940096" lon="7.970949615829168"><ele>215.0</ele><time>2026-04-11T16:22:55Z</time></trkpt><trkpt lat="44.7269661911552" lon="7.970822432618097"><ele>213.66666666666669</ele><time>2026-04-11T16:22:56Z</time></trkpt><trkpt lat="44.7271319288576" lon="7.970696638806389"><ele>212.33333333333331</ele><time>2026-04-11T16:22:57Z</time></trkpt><trkpt lat="44.72728173868211" lon="7.970588569711678"><ele>211.0</ele><time>2026-04-11T16:22:58Z</time></trkpt><trkpt lat="44.72742132689345" lon="7.970483559716343"><ele>211.0</ele><time>2026-04-11T16:22:59Z</time></trkpt><trkpt lat="44.727543744302515" lon="7.9703879421856705"><ele>211.0</ele><time>2026-04-11T16:23:00Z</time></trkpt><trkpt lat="44.727634413735295" lon="7.970318348242925"><ele>211.0</ele><time>2026-04-11T16:23:01Z</time></trkpt><trkpt lat="44.72770679796601" lon="7.970278917262732"><ele>211.0</ele><time>2026-04-11T16:23:03Z</time></trkpt><trkpt lat="44.7275549603727" lon="7.970176187270281"><ele>211.0</ele><time>2026-04-11T16:23:06Z</time></trkpt><trkpt lat="44.7274303709249" lon="7.970139224957121"><ele>211.0</ele><time>2026-04-11T16:23:07Z</time></trkpt><trkpt lat="44.727287820365575" lon="7.9701030828576345"><ele>211.0</ele><time>2026-04-11T16:23:08Z</time></trkpt><trkpt lat="44.727134595671835" lon="7.9700734414983"><ele>211.0</ele><time>2026-04-11T16:23:09Z</time></trkpt><trkpt lat="44.72696192492913" lon="7.970081737854977"><ele>210.33333333333331</ele><time>2026-04-11T16:23:10Z</time></trkpt><trkpt lat="44.72677047343814" lon="7.97011872827326"><ele>209.66666666666669</ele><time>2026-04-11T16:23:11Z</time></trkpt><trkpt lat="44.726555433213655" lon="7.970159755841393"><ele>209.0</ele><time>2026-04-11T16:23:12Z</time></trkpt><trkpt lat="44.72632984199449" lon="7.970196394923136"><ele>209.0</ele><time>2026-04-11T16:23:13Z</time></trkpt><trkpt lat="44.72611905112426" lon="7.970224762261296"><ele>209.0</ele><time>2026-04-11T16:23:14Z</time></trkpt><trkpt lat="44.725948375791184" lon="7.9702417116002575"><ele>209.0</ele><time>2026-04-11T16:23:15Z</time></trkpt><trkpt lat="44.725810981392414" lon="7.970265005698115"><ele>209.0</ele><time>2026-04-11T16:23:16Z</time></trkpt><trkpt lat="44.72569629130378" lon="7.970263538195631"><ele>209.0</ele><time>2026-04-11T16:23:17Z</time></trkpt><trkpt lat="44.7255722389062" lon="7.970214097663239"><ele>209.0</ele><time>2026-04-11T16:23:18Z</time></trkpt><trkpt lat="44.72543537957814" lon="7.9701125893081"><ele>209.0</ele><time>2026-04-11T16:23:19Z</time></trkpt><trkpt lat="44.72529817968149" lon="7.969991579233509"><ele>209.5</ele><time>2026-04-11T16:23:20Z</time></trkpt><trkpt lat="44.72519145799179" lon="7.969870674089324"><ele>210.0</ele><time>2026-04-11T16:23:21Z</time></trkpt><trkpt lat="44.72511107678914" lon="7.969751463315442"><ele>210.5</ele><time>2026-04-11T16:23:22Z</time></trkpt><trkpt lat="44.7250554125742" lon="7.9695876676586535"><ele>211.0</ele><time>2026-04-11T16:23:23Z</time></trkpt><trkpt lat="44.72501086091676" lon="7.969389059497593"><ele>211.0</ele><time>2026-04-11T16:23:24Z</time></trkpt><trkpt lat="44.724964646797815" lon="7.969208571754203"><ele>211.0</ele><time>2026-04-11T16:23:25Z</time></trkpt><trkpt lat="44.72487175617155" lon="7.969040854680459"><ele>211.0</ele><time>2026-04-11T16:23:26Z</time></trkpt><trkpt lat="44.72473887959475" lon="7.968885931348307"><ele>211.0</ele><time>2026-04-11T16:23:27Z</time></trkpt><trkpt lat="44.72458854063865" lon="7.968747731434988"><ele>211.0</ele><time>2026-04-11T16:23:28Z</time></trkpt><trkpt lat="44.72443513456835" lon="7.9686164691754175"><ele>211.0</ele><time>2026-04-11T16:23:29Z</time></trkpt><trkpt lat="44.72432999898578" lon="7.968478747823923"><ele>211.0</ele><time>2026-04-11T16:23:30Z</time></trkpt><trkpt lat="44.72424776017723" lon="7.968309387195064"><ele>211.0</ele><time>2026-04-11T16:23:31Z</time></trkpt><trkpt lat="44.72415224192398" lon="7.968103363121385"><ele>211.0</ele><time>2026-04-11T16:23:32.001Z</time></trkpt><trkpt lat="44.72405192023975" lon="7.967876936466796"><ele>211.0</ele><time>2026-04-11T16:23:33.001Z</time></trkpt><trkpt lat="44.72395869293488" lon="7.967609104457365"><ele>211.0</ele><time>2026-04-11T16:23:34.001Z</time></trkpt><trkpt lat="44.72388941511197" lon="7.967391158638218"><ele>211.0</ele><time>2026-04-11T16:23:35.001Z</time></trkpt><trkpt lat="44.72381278526304" lon="7.967207378837147"><ele>211.5</ele><time>2026-04-11T16:23:36.001Z</time></trkpt><trkpt lat="44.723731540430414" lon="7.967067290897274"><ele>212.0</ele><time>2026-04-11T16:23:37.001Z</time></trkpt><trkpt lat="44.72363825903016" lon="7.9669477022138295"><ele>212.5</ele><time>2026-04-11T16:23:38.001Z</time></trkpt><trkpt lat="44.723524076892325" lon="7.966833248835816"><ele>213.0</ele><time>2026-04-11T16:23:39.001Z</time></trkpt><trkpt lat="44.72341551496492" lon="7.96670686651335"><ele>213.0</ele><time>2026-04-11T16:23:40.001Z</time></trkpt><trkpt lat="44.723330952985606" lon="7.966567085471252"><ele>213.0</ele><time>2026-04-11T16:23:41.001Z</time></trkpt><trkpt lat="44.72325507419962" lon="7.966385519741595"><ele>213.0</ele><time>2026-04-11T16:23:42.001Z</time></trkpt><trkpt lat="44.72318461469019" lon="7.966190951950337"><ele>213.0</ele><time>2026-04-11T16:23:43.001Z</time></trkpt><trkpt lat="44.723120248102845" lon="7.9660298102420795"><ele>213.0</ele><time>2026-04-11T16:23:44.001Z</time></trkpt><trkpt lat="44.723060063342686" lon="7.965880092994198"><ele>213.0</ele><time>2026-04-11T16:23:45.001Z</time></trkpt><trkpt lat="44.72300255728" lon="7.965738491257327"><ele>213.0</ele><time>2026-04-11T16:23:46.001Z</time></trkpt><trkpt lat="44.72295351079463" lon="7.965631923647046"><ele>213.0</ele><time>2026-04-11T16:23:47.001Z</time></trkpt><trkpt lat="44.722811781696365" lon="7.965591382120912"><ele>214.4</ele><time>2026-04-11T16:23:49.001Z</time></trkpt><trkpt lat="44.72268874326358" lon="7.965607841655822"><ele>215.8</ele><time>2026-04-11T16:23:50.001Z</time></trkpt><trkpt lat="44.722564516935456" lon="7.965617060065826"><ele>217.2</ele><time>2026-04-11T16:23:51.001Z</time></trkpt><trkpt lat="44.7224525553657" lon="7.96561702445222"><ele>218.6</ele><time>2026-04-11T16:23:52.001Z</time></trkpt><trkpt lat="44.722367130699546" lon="7.965617528742571"><ele>220.0</ele><time>2026-04-11T16:23:53.001Z</time></trkpt><trkpt lat="44.72227099243029" lon="7.9656194648497305"><ele>219.99999999999997</ele><time>2026-04-11T16:23:54.001Z</time></trkpt><trkpt lat="44.722184289587155" lon="7.965611544073324"><ele>220.0</ele><time>2026-04-11T16:23:55.001Z</time></trkpt><trkpt lat="44.72211585548741" lon="7.9656062714729154"><ele>220.0</ele><time>2026-04-11T16:23:56.001Z</time></trkpt><trkpt lat="44.72205143573865" lon="7.965581590330644"><ele>220.0</ele><time>2026-04-11T16:23:58Z</time></trkpt><trkpt lat="44.722029056305466" lon="7.965459921461999"><ele>219.99999999999997</ele><time>2026-04-11T16:24:00Z</time></trkpt><trkpt lat="44.72199554325101" lon="7.965291255482091"><ele>220.0</ele><time>2026-04-11T16:24:02Z</time></trkpt><trkpt lat="44.72195240711561" lon="7.965145153192095"><ele>222.8</ele><time>2026-04-11T16:24:04Z</time></trkpt><trkpt lat="44.72191373793944" lon="7.964998494952936"><ele>225.6</ele><time>2026-04-11T16:24:06Z</time></trkpt><trkpt lat="44.72188103047588" lon="7.964909205142565"><ele>228.39999999999998</ele><time>2026-04-11T16:24:07Z</time></trkpt><trkpt lat="44.72182415374329" lon="7.964810310964859"><ele>231.2</ele><time>2026-04-11T16:24:09Z</time></trkpt><trkpt lat="44.7217344145851" lon="7.964748433088528"><ele>234.0</ele><time>2026-04-11T16:24:11Z</time></trkpt><trkpt lat="44.721661720928374" lon="7.964817864271328"><ele>236.33333333333334</ele><time>2026-04-11T16:24:23Z</time></trkpt><trkpt lat="44.72160610439054" lon="7.964869995111137"><ele>238.66666666666669</ele><time>2026-04-11T16:24:25Z</time></trkpt><trkpt lat="44.72152354581037" lon="7.9649207639715"><ele>241.0</ele><time>2026-04-11T16:24:27Z</time></trkpt><trkpt lat="44.72145918046828" lon="7.964955050046417"><ele>243.33333333333334</ele><time>2026-04-11T16:24:29Z</time></trkpt><trkpt lat="44.721380136101615" lon="7.964974972660415"><ele>245.66666666666669</ele><time>2026-04-11T16:24:31Z</time></trkpt><trkpt lat="44.72129683819394" lon="7.964982232148636"><ele>248.0</ele><time>2026-04-11T16:24:33Z</time></trkpt><trkpt lat="44.72123065902885" lon="7.964978404216651"><ele>248.00000000000003</ele><time>2026-04-11T16:24:35Z</time></trkpt><trkpt lat="44.72116167107603" lon="7.9649691040581745"><ele>248.0</ele><time>2026-04-11T16:24:38Z</time></trkpt><trkpt lat="44.72109976438691" lon="7.964875299761986"><ele>248.0</ele><time>2026-04-11T16:24:41Z</time></trkpt><trkpt lat="44.72106555472272" lon="7.964799520859243"><ele>248.0</ele><time>2026-04-11T16:24:44Z</time></trkpt><trkpt lat="44.720981609529616" lon="7.964724340094961"><ele>248.00000000000003</ele><time>2026-04-11T16:24:47Z</time></trkpt><trkpt lat="44.7209063019599" lon="7.9646869269890415"><ele>248.0</ele><time>2026-04-11T16:25:01Z</time></trkpt><trkpt lat="44.72085294513177" lon="7.964639787303037"><ele>249.66666666666669</ele><time>2026-04-11T16:25:02Z</time></trkpt><trkpt lat="44.72078947918013" lon="7.964581648254648"><ele>251.33333333333334</ele><time>2026-04-11T16:25:03Z</time></trkpt><trkpt lat="44.72073242473705" lon="7.964533564158315"><ele>253.0</ele><time>2026-04-11T16:25:04Z</time></trkpt><trkpt lat="44.72070420187237" lon="7.964449102972451"><ele>254.66666666666669</ele><time>2026-04-11T16:25:05Z</time></trkpt><trkpt lat="44.72060756469848" lon="7.964379799389537"><ele>256.3333333333333</ele><time>2026-04-11T16:25:07Z</time></trkpt><trkpt lat="44.72054973075779" lon="7.964338861587231"><ele>258.0</ele><time>2026-04-11T16:25:08Z</time></trkpt><trkpt lat="44.72048194742683" lon="7.964287170479111"><ele>258.0</ele><time>2026-04-11T16:25:09Z</time></trkpt><trkpt lat="44.720408640983536" lon="7.964227699316389"><ele>258.0</ele><time>2026-04-11T16:25:10Z</time></trkpt><trkpt lat="44.72035696129358" lon="7.964171703224905"><ele>258.0</ele><time>2026-04-11T16:25:11Z</time></trkpt><trkpt lat="44.72030234292713" lon="7.964107258116883"><ele>258.0</ele><time>2026-04-11T16:25:12Z</time></trkpt><trkpt lat="44.72025440730825" lon="7.964044633910074"><ele>258.0</ele><time>2026-04-11T16:25:13Z</time></trkpt><trkpt lat="44.72017598741371" lon="7.963918268262148"><ele>258.0</ele><time>2026-04-11T16:25:15Z</time></trkpt><trkpt lat="44.72012497850279" lon="7.963790546169104"><ele>257.0</ele><time>2026-04-11T16:25:17Z</time></trkpt><trkpt lat="44.72008923646678" lon="7.963608243519825"><ele>256.0</ele><time>2026-04-11T16:25:19Z</time></trkpt><trkpt lat="44.7200787423079" lon="7.963520384615198"><ele>255.0</ele><time>2026-04-11T16:25:20Z</time></trkpt><trkpt lat="44.72006767634613" lon="7.963353639354268"><ele>254.0</ele><time>2026-04-11T16:25:22Z</time></trkpt><trkpt lat="44.72006498630541" lon="7.9632551726683225"><ele>253.0</ele><time>2026-04-11T16:25:23Z</time></trkpt><trkpt lat="44.720045988059766" lon="7.9631447296742595"><ele>253.00000000000003</ele><time>2026-04-11T16:25:24Z</time></trkpt><trkpt lat="44.72004273595708" lon="7.963052912384749"><ele>253.0</ele><time>2026-04-11T16:25:25Z</time></trkpt><trkpt lat="44.720039010183754" lon="7.962948643762515"><ele>253.00000000000003</ele><time>2026-04-11T16:25:26.001Z</time></trkpt><trkpt lat="44.72002049336679" lon="7.962847808639079"><ele>253.00000000000003</ele><time>2026-04-11T16:25:27.001Z</time></trkpt><trkpt lat="44.72000911739001" lon="7.962751731467405"><ele>253.0</ele><time>2026-04-11T16:25:28.001Z</time></trkpt><trkpt lat="44.719999114522274" lon="7.962655322529451"><ele>253.00000000000003</ele><time>2026-04-11T16:25:29.001Z</time></trkpt><trkpt lat="44.71998359752381" lon="7.962551197465841"><ele>253.00000000000003</ele><time>2026-04-11T16:25:30.001Z</time></trkpt><trkpt lat="44.719983343818534" lon="7.96243762410351"><ele>253.16666666666666</ele><time>2026-04-11T16:25:31.001Z</time></trkpt><trkpt lat="44.719955444000504" lon="7.962313687063899"><ele>253.33333333333331</ele><time>2026-04-11T16:25:32.001Z</time></trkpt><trkpt lat="44.71991969257696" lon="7.962193030533606"><ele>253.5</ele><time>2026-04-11T16:25:33.001Z</time></trkpt><trkpt lat="44.719873475947395" lon="7.9620965843444385"><ele>253.66666666666669</ele><time>2026-04-11T16:25:34.001Z</time></trkpt><trkpt lat="44.719835376815546" lon="7.962010814134348"><ele>253.83333333333334</ele><time>2026-04-11T16:25:35.001Z</time></trkpt><trkpt lat="44.71981775400378" lon="7.961924270543818"><ele>254.0</ele><time>2026-04-11T16:25:36.001Z</time></trkpt><trkpt lat="44.71976512283093" lon="7.961829263033265"><ele>253.33333333333334</ele><time>2026-04-11T16:25:38.001Z</time></trkpt><trkpt lat="44.71982388944213" lon="7.961671710050228"><ele>252.66666666666669</ele><time>2026-04-11T16:26:03Z</time></trkpt><trkpt lat="44.71984138331459" lon="7.9615767659359085"><ele>252.0</ele><time>2026-04-11T16:26:04Z</time></trkpt><trkpt lat="44.71986964186114" lon="7.9614828602551"><ele>251.33333333333331</ele><time>2026-04-11T16:26:05Z</time></trkpt><trkpt lat="44.719898034447766" lon="7.961376389137797"><ele>250.66666666666666</ele><time>2026-04-11T16:26:06Z</time></trkpt><trkpt lat="44.71993251268979" lon="7.961244717460071"><ele>250.0</ele><time>2026-04-11T16:26:07Z</time></trkpt><trkpt lat="44.719976835878555" lon="7.961090370049231"><ele>250.0</ele><time>2026-04-11T16:26:08Z</time></trkpt><trkpt lat="44.720017927131074" lon="7.960945164387877"><ele>250.0</ele><time>2026-04-11T16:26:09Z</time></trkpt><trkpt lat="44.720054423010666" lon="7.960820464928246"><ele>250.0</ele><time>2026-04-11T16:26:10Z</time></trkpt><trkpt lat="44.720084528396626" lon="7.96071421459714"><ele>250.0</ele><time>2026-04-11T16:26:11Z</time></trkpt><trkpt lat="44.72015409218567" lon="7.960594788502207"><ele>250.0</ele><time>2026-04-11T16:26:13Z</time></trkpt><trkpt lat="44.72020787648046" lon="7.9604670129037745"><ele>249.83333333333331</ele><time>2026-04-11T16:26:15Z</time></trkpt><trkpt lat="44.72024190495643" lon="7.960386171328772"><ele>249.66666666666666</ele><time>2026-04-11T16:26:16Z</time></trkpt><trkpt lat="44.720223478109226" lon="7.9602213629971414"><ele>249.5</ele><time>2026-04-11T16:26:17Z</time></trkpt><trkpt lat="44.72025065121027" lon="7.960110886387334"><ele>249.33333333333331</ele><time>2026-04-11T16:26:18Z</time></trkpt><trkpt lat="44.72027361801046" lon="7.960005614864686"><ele>249.16666666666666</ele><time>2026-04-11T16:26:19Z</time></trkpt><trkpt lat="44.72029735491073" lon="7.95987182260547"><ele>249.0</ele><time>2026-04-11T16:26:20Z</time></trkpt><trkpt lat="44.72033149296716" lon="7.959722693736753"><ele>250.5</ele><time>2026-04-11T16:26:21Z</time></trkpt><trkpt lat="44.72037343316521" lon="7.959556681800574"><ele>252.0</ele><time>2026-04-11T16:26:22Z</time></trkpt><trkpt lat="44.7204107120874" lon="7.959391655645083"><ele>253.5</ele><time>2026-04-11T16:26:23Z</time></trkpt><trkpt lat="44.720444125920906" lon="7.959254837747935"><ele>255.0</ele><time>2026-04-11T16:26:24Z</time></trkpt><trkpt lat="44.72047274173837" lon="7.959116190238856"><ele>255.0</ele><time>2026-04-11T16:26:25Z</time></trkpt><trkpt lat="44.72049713417567" lon="7.958960189926946"><ele>255.0</ele><time>2026-04-11T16:26:26Z</time></trkpt><trkpt lat="44.720513737146675" lon="7.958824765339245"><ele>255.0</ele><time>2026-04-11T16:26:27Z</time></trkpt><trkpt lat="44.72052818477722" lon="7.958712604591057"><ele>255.0</ele><time>2026-04-11T16:26:28Z</time></trkpt><trkpt lat="44.720550944006945" lon="7.958579294235662"><ele>255.0</ele><time>2026-04-11T16:26:30Z</time></trkpt><trkpt lat="44.72063445437294" lon="7.958578679745658"><ele>255.0</ele><time>2026-04-11T16:26:35Z</time></trkpt><trkpt lat="44.720750345726856" lon="7.958666144783001"><ele>255.0</ele><time>2026-04-11T16:26:38Z</time></trkpt><trkpt lat="44.72082036913651" lon="7.958708794854294"><ele>255.0</ele><time>2026-04-11T16:26:39Z</time></trkpt><trkpt lat="44.72090993170676" lon="7.958739939745644"><ele>255.0</ele><time>2026-04-11T16:26:40Z</time></trkpt><trkpt lat="44.72100278603087" lon="7.958766646865176"><ele>255.0</ele><time>2026-04-11T16:26:41Z</time></trkpt><trkpt lat="44.72109672040153" lon="7.958789525929917"><ele>257.5</ele><time>2026-04-11T16:26:42Z</time></trkpt><trkpt lat="44.72119055158907" lon="7.958803988765322"><ele>260.0</ele><time>2026-04-11T16:26:43Z</time></trkpt><trkpt lat="44.721268532754614" lon="7.958814984360919"><ele>262.5</ele><time>2026-04-11T16:26:44Z</time></trkpt><trkpt lat="44.72133147088087" lon="7.958828158703061"><ele>265.0</ele><time>2026-04-11T16:26:45Z</time></trkpt><trkpt lat="44.721410095826094" lon="7.9588333011919365"><ele>267.5</ele><time>2026-04-11T16:26:47Z</time></trkpt><trkpt lat="44.7215048899034" lon="7.9588285565046055"><ele>270.0</ele><time>2026-04-11T16:26:49Z</time></trkpt><trkpt lat="44.72160452035901" lon="7.958822587408487"><ele>270.0</ele><time>2026-04-11T16:26:51Z</time></trkpt><trkpt lat="44.72174056231369" lon="7.9588222236423976"><ele>270.0</ele><time>2026-04-11T16:26:53Z</time></trkpt><trkpt lat="44.72180312977619" lon="7.9588110497382365"><ele>270.0</ele><time>2026-04-11T16:26:54Z</time></trkpt><trkpt lat="44.72193270973623" lon="7.958793676985591"><ele>270.0</ele><time>2026-04-11T16:26:56Z</time></trkpt><trkpt lat="44.722001896198606" lon="7.958800845905385"><ele>270.0</ele><time>2026-04-11T16:26:57Z</time></trkpt><trkpt lat="44.722110494967865" lon="7.958808930422199"><ele>272.4</ele><time>2026-04-11T16:26:59Z</time></trkpt><trkpt lat="44.722196102916044" lon="7.958823461272309"><ele>274.8</ele><time>2026-04-11T16:27:01Z</time></trkpt><trkpt lat="44.722298875786755" lon="7.958904604862022"><ele>277.2</ele><time>2026-04-11T16:27:03Z</time></trkpt><trkpt lat="44.72236293967029" lon="7.959001809399732"><ele>279.6</ele><time>2026-04-11T16:27:05Z</time></trkpt><trkpt lat="44.722438368130874" lon="7.95912033747943"><ele>282.0</ele><time>2026-04-11T16:27:07Z</time></trkpt><trkpt lat="44.7225065817671" lon="7.959182714038648"><ele>282.0</ele><time>2026-04-11T16:27:09Z</time></trkpt><trkpt lat="44.7225706823879" lon="7.959201442248651"><ele>282.0</ele><time>2026-04-11T16:27:17Z</time></trkpt><trkpt lat="44.722648150930844" lon="7.959213119533699"><ele>282.0</ele><time>2026-04-11T16:27:19Z</time></trkpt><trkpt lat="44.722713548523174" lon="7.95919973763709"><ele>282.0</ele><time>2026-04-11T16:27:21Z</time></trkpt><trkpt lat="44.722775544892095" lon="7.959239520032676"><ele>282.0</ele><time>2026-04-11T16:27:23Z</time></trkpt><trkpt lat="44.7228662922742" lon="7.959303930629513"><ele>282.0</ele><time>2026-04-11T16:27:26.001Z</time></trkpt><trkpt lat="44.722945875818276" lon="7.959398565691861"><ele>286.2</ele><time>2026-04-11T16:27:28.001Z</time></trkpt><trkpt lat="44.72304123288431" lon="7.95947251556209"><ele>290.4</ele><time>2026-04-11T16:27:30.001Z</time></trkpt><trkpt lat="44.723146556428986" lon="7.959509498374409"><ele>294.6</ele><time>2026-04-11T16:27:32.001Z</time></trkpt><trkpt lat="44.72324254105662" lon="7.9595952631674125"><ele>298.8</ele><time>2026-04-11T16:27:34.001Z</time></trkpt><trkpt lat="44.723303143726845" lon="7.95966353235913"><ele>303.0</ele><time>2026-04-11T16:27:36.001Z</time></trkpt><trkpt lat="44.723388711555764" lon="7.959687410890852"><ele>303.0</ele><time>2026-04-11T16:27:38.001Z</time></trkpt><trkpt lat="44.72345061834472" lon="7.959723607961757"><ele>303.0</ele><time>2026-04-11T16:27:39.001Z</time></trkpt><trkpt lat="44.723543527651145" lon="7.9598053610582875"><ele>303.0</ele><time>2026-04-11T16:27:41.001Z</time></trkpt><trkpt lat="44.72370695217689" lon="7.959715373678276"><ele>303.0</ele><time>2026-04-11T16:27:45.001Z</time></trkpt><trkpt lat="44.72375149465892" lon="7.959650795248459"><ele>303.0</ele><time>2026-04-11T16:27:46.001Z</time></trkpt><trkpt lat="44.723823967677276" lon="7.959565457629355"><ele>303.3333333333333</ele><time>2026-04-11T16:27:48.001Z</time></trkpt><trkpt lat="44.72389442944206" lon="7.95946134252073"><ele>303.6666666666667</ele><time>2026-04-11T16:27:50.001Z</time></trkpt><trkpt lat="44.72396053091086" lon="7.959406881204144"><ele>304.0</ele><time>2026-04-11T16:27:52.001Z</time></trkpt><trkpt lat="44.72401431340144" lon="7.9593308885817935"><ele>304.33333333333337</ele><time>2026-04-11T16:27:54.001Z</time></trkpt><trkpt lat="44.7240907073868" lon="7.959286463547767"><ele>304.6666666666667</ele><time>2026-04-11T16:27:57.001Z</time></trkpt><trkpt lat="44.724191153756834" lon="7.959274739114959"><ele>305.0</ele><time>2026-04-11T16:27:59.001Z</time></trkpt><trkpt lat="44.72425374236952" lon="7.959257586895417"><ele>305.0</ele><time>2026-04-11T16:28:00.001Z</time></trkpt><trkpt lat="44.7243157105868" lon="7.959234297642228"><ele>305.0</ele><time>2026-04-11T16:28:01.001Z</time></trkpt><trkpt lat="44.72442214229533" lon="7.9592396898736215"><ele>305.0</ele><time>2026-04-11T16:28:03.001Z</time></trkpt><trkpt lat="44.72450398114492" lon="7.959196564204172"><ele>305.0</ele><time>2026-04-11T16:28:05.001Z</time></trkpt><trkpt lat="44.724604356384845" lon="7.959170842282797"><ele>305.0</ele><time>2026-04-11T16:28:07.001Z</time></trkpt><trkpt lat="44.72468509769056" lon="7.959137613000078"><ele>305.0</ele><time>2026-04-11T16:28:08.999Z</time></trkpt><trkpt lat="44.72474256043754" lon="7.95903090881234"><ele>308.8</ele><time>2026-04-11T16:28:10.999Z</time></trkpt><trkpt lat="44.72480729978927" lon="7.9589610248687"><ele>312.6</ele><time>2026-04-11T16:28:12.999Z</time></trkpt><trkpt lat="44.724874470381685" lon="7.958853454120117"><ele>316.4</ele><time>2026-04-11T16:28:14.999Z</time></trkpt><trkpt lat="44.72493480891628" lon="7.95876549947841"><ele>320.2</ele><time>2026-04-11T16:28:16.999Z</time></trkpt><trkpt lat="44.72501466637043" lon="7.958675511534796"><ele>324.0</ele><time>2026-04-11T16:28:18.999Z</time></trkpt><trkpt lat="44.72508683147811" lon="7.958577019146337"><ele>324.0</ele><time>2026-04-11T16:28:22Z</time></trkpt><trkpt lat="44.72513560523202" lon="7.958502295384442"><ele>324.0</ele><time>2026-04-11T16:28:24Z</time></trkpt><trkpt lat="44.7251846145281" lon="7.958410744340728"><ele>324.0</ele><time>2026-04-11T16:28:26Z</time></trkpt><trkpt lat="44.72519876313464" lon="7.958313284800678"><ele>324.0</ele><time>2026-04-11T16:28:28Z</time></trkpt><trkpt lat="44.72519172050736" lon="7.9582208184551835"><ele>324.0</ele><time>2026-04-11T16:28:30Z</time></trkpt><trkpt lat="44.72511221462426" lon="7.958116598856584"><ele>324.0</ele><time>2026-04-11T16:28:32Z</time></trkpt><trkpt lat="44.72502159227428" lon="7.958045650946482"><ele>323.79999999999995</ele><time>2026-04-11T16:28:34Z</time></trkpt><trkpt lat="44.724922634362436" lon="7.957934210488314"><ele>323.59999999999997</ele><time>2026-04-11T16:28:36Z</time></trkpt><trkpt lat="44.724858572163065" lon="7.957875507454985"><ele>323.4</ele><time>2026-04-11T16:28:38Z</time></trkpt><trkpt lat="44.7247952887845" lon="7.957795997288556"><ele>323.2</ele><time>2026-04-11T16:28:42Z</time></trkpt><trkpt lat="44.724701322218415" lon="7.957711466864002"><ele>323.0</ele><time>2026-04-11T16:28:44Z</time></trkpt><trkpt lat="44.724641950382704" lon="7.957658982744125"><ele>323.0</ele><time>2026-04-11T16:28:45Z</time></trkpt><trkpt lat="44.724583800618035" lon="7.9576093744678165"><ele>323.0</ele><time>2026-04-11T16:28:46Z</time></trkpt><trkpt lat="44.724476196289636" lon="7.957524552951351"><ele>323.0</ele><time>2026-04-11T16:28:48Z</time></trkpt><trkpt lat="44.72438214586484" lon="7.957432701622274"><ele>323.0</ele><time>2026-04-11T16:28:50Z</time></trkpt><trkpt lat="44.724304602943825" lon="7.957337688850833"><ele>323.0</ele><time>2026-04-11T16:28:52Z</time></trkpt><trkpt lat="44.72419846981593" lon="7.957245553828366"><ele>323.1666666666667</ele><time>2026-04-11T16:28:55Z</time></trkpt><trkpt lat="44.72413327684392" lon="7.957181901082273"><ele>323.33333333333337</ele><time>2026-04-11T16:28:56Z</time></trkpt><trkpt lat="44.7240815728199" lon="7.957128551714294"><ele>323.5</ele><time>2026-04-11T16:28:57Z</time></trkpt><trkpt lat="44.72402507895187" lon="7.957079420195889"><ele>323.6666666666667</ele><time>2026-04-11T16:28:58Z</time></trkpt><trkpt lat="44.7239587198993" lon="7.957032428144403"><ele>323.8333333333333</ele><time>2026-04-11T16:28:59Z</time></trkpt><trkpt lat="44.723892006505416" lon="7.956963371323475"><ele>324.0</ele><time>2026-04-11T16:29:01Z</time></trkpt><trkpt lat="44.72376367235228" lon="7.956836840490581"><ele>324.0</ele><time>2026-04-11T16:29:08Z</time></trkpt><trkpt lat="44.723695162030396" lon="7.956762796629501"><ele>324.0</ele><time>2026-04-11T16:29:09Z</time></trkpt><trkpt lat="44.7236411709254" lon="7.956707779747846"><ele>324.0</ele><time>2026-04-11T16:29:10Z</time></trkpt><trkpt lat="44.72357308954152" lon="7.956597132674611"><ele>324.0</ele><time>2026-04-11T16:29:12Z</time></trkpt><trkpt lat="44.72350157672166" lon="7.956476805317413"><ele>324.0</ele><time>2026-04-11T16:29:14Z</time></trkpt><trkpt lat="44.72351345319959" lon="7.9563793589891745"><ele>324.0</ele><time>2026-04-11T16:29:17Z</time></trkpt><trkpt lat="44.72354963272819" lon="7.956278678096233"><ele>323.6666666666667</ele><time>2026-04-11T16:29:19Z</time></trkpt><trkpt lat="44.72355587695263" lon="7.956178133329617"><ele>323.3333333333333</ele><time>2026-04-11T16:29:21Z</time></trkpt><trkpt lat="44.72357772601154" lon="7.95607203315642"><ele>323.0</ele><time>2026-04-11T16:29:24Z</time></trkpt><trkpt lat="44.72363137727208" lon="7.955956908584846"><ele>322.66666666666663</ele><time>2026-04-11T16:29:27.001Z</time></trkpt><trkpt lat="44.72370769317949" lon="7.955872459743686"><ele>322.3333333333333</ele><time>2026-04-11T16:29:29.001Z</time></trkpt><trkpt lat="44.72377345825715" lon="7.955778773553688"><ele>322.0</ele><time>2026-04-11T16:29:31.001Z</time></trkpt><trkpt lat="44.72381755572278" lon="7.95566543084044"><ele>319.8</ele><time>2026-04-11T16:29:33.001Z</time></trkpt><trkpt lat="44.72388184186128" lon="7.9555354323922725"><ele>317.6</ele><time>2026-04-11T16:29:35.001Z</time></trkpt><trkpt lat="44.723940139123826" lon="7.955421962838503"><ele>315.40000000000003</ele><time>2026-04-11T16:29:37.001Z</time></trkpt><trkpt lat="44.723996063452745" lon="7.955326759308144"><ele>313.20000000000005</ele><time>2026-04-11T16:29:39.001Z</time></trkpt><trkpt lat="44.724037918689476" lon="7.9551795771706395"><ele>311.0</ele><time>2026-04-11T16:29:41.001Z</time></trkpt><trkpt lat="44.72408697767187" lon="7.955107456512167"><ele>309.6666666666667</ele><time>2026-04-11T16:29:43.001Z</time></trkpt><trkpt lat="44.72410264336688" lon="7.955018960992967"><ele>308.33333333333337</ele><time>2026-04-11T16:30:17Z</time></trkpt><trkpt lat="44.724169620294745" lon="7.954911704355045"><ele>307.0</ele><time>2026-04-11T16:30:19Z</time></trkpt><trkpt lat="44.724216356066435" lon="7.954841865625568"><ele>305.6666666666667</ele><time>2026-04-11T16:30:20Z</time></trkpt><trkpt lat="44.724276822128864" lon="7.954756932892756"><ele>304.3333333333333</ele><time>2026-04-11T16:30:21Z</time></trkpt><trkpt lat="44.724332322846216" lon="7.954669083558114"><ele>303.0</ele><time>2026-04-11T16:30:22Z</time></trkpt><trkpt lat="44.724421179876074" lon="7.954558194353137"><ele>300.8333333333333</ele><time>2026-04-11T16:30:24Z</time></trkpt><trkpt lat="44.72448024370708" lon="7.954506624555214"><ele>298.6666666666667</ele><time>2026-04-11T16:30:25Z</time></trkpt><trkpt lat="44.72455916021007" lon="7.954452773887384"><ele>296.5</ele><time>2026-04-11T16:30:26Z</time></trkpt><trkpt lat="44.72463013161948" lon="7.954399629697037"><ele>294.33333333333337</ele><time>2026-04-11T16:30:27Z</time></trkpt><trkpt lat="44.72470021830765" lon="7.954350245243726"><ele>292.1666666666667</ele><time>2026-04-11T16:30:28Z</time></trkpt><trkpt lat="44.724767511448405" lon="7.954295861026036"><ele>290.0</ele><time>2026-04-11T16:30:29Z</time></trkpt><trkpt lat="44.72482657338178" lon="7.9542345153749885"><ele>293.4</ele><time>2026-04-11T16:30:30Z</time></trkpt><trkpt lat="44.724881218200125" lon="7.954176687099738"><ele>296.8</ele><time>2026-04-11T16:30:31Z</time></trkpt><trkpt lat="44.72497583440155" lon="7.954117747385615"><ele>300.2</ele><time>2026-04-11T16:30:33Z</time></trkpt><trkpt lat="44.72507863766753" lon="7.95409635504569"><ele>303.6</ele><time>2026-04-11T16:30:35Z</time></trkpt><trkpt lat="44.725159309930035" lon="7.953979198620569"><ele>307.0</ele><time>2026-04-11T16:30:37Z</time></trkpt><trkpt lat="44.72520625929325" lon="7.953918258334469"><ele>306.0</ele><time>2026-04-11T16:30:39Z</time></trkpt><trkpt lat="44.725285543274445" lon="7.953809446382288"><ele>305.0</ele><time>2026-04-11T16:30:42Z</time></trkpt><trkpt lat="44.72535177393702" lon="7.9537364962307455"><ele>304.0</ele><time>2026-04-11T16:30:44Z</time></trkpt><trkpt lat="44.725409987728035" lon="7.953655869907141"><ele>303.0</ele><time>2026-04-11T16:30:46Z</time></trkpt><trkpt lat="44.72548933313783" lon="7.953573817992345"><ele>302.0</ele><time>2026-04-11T16:30:48Z</time></trkpt><trkpt lat="44.725530964972585" lon="7.95345514043201"><ele>305.0</ele><time>2026-04-11T16:30:50Z</time></trkpt><trkpt lat="44.72547048085595" lon="7.953308640389751"><ele>308.0</ele><time>2026-04-11T16:30:52Z</time></trkpt><trkpt lat="44.72538186875112" lon="7.953169020070692"><ele>311.0</ele><time>2026-04-11T16:30:54Z</time></trkpt><trkpt lat="44.72534845654086" lon="7.953087427346772"><ele>314.0</ele><time>2026-04-11T16:30:55Z</time></trkpt><trkpt lat="44.72528648032112" lon="7.952991751654553"><ele>317.0</ele><time>2026-04-11T16:30:57Z</time></trkpt><trkpt lat="44.72524174310553" lon="7.952881984478497"><ele>317.83333333333337</ele><time>2026-04-11T16:30:59Z</time></trkpt><trkpt lat="44.725210114855486" lon="7.952791324843089"><ele>318.6666666666667</ele><time>2026-04-11T16:31:01Z</time></trkpt><trkpt lat="44.725141494758994" lon="7.952742003125398"><ele>319.5</ele><time>2026-04-11T16:31:03Z</time></trkpt><trkpt lat="44.7250514464635" lon="7.952708585473542"><ele>320.3333333333333</ele><time>2026-04-11T16:31:05Z</time></trkpt><trkpt lat="44.724966133573545" lon="7.952658960170582"><ele>321.16666666666663</ele><time>2026-04-11T16:31:07Z</time></trkpt><trkpt lat="44.72489580780895" lon="7.952595751140971"><ele>322.0</ele><time>2026-04-11T16:31:08Z</time></trkpt><trkpt lat="44.72484507516419" lon="7.952540487782552"><ele>324.0</ele><time>2026-04-11T16:31:09Z</time></trkpt><trkpt lat="44.72474969028521" lon="7.952447574526486"><ele>326.0</ele><time>2026-04-11T16:31:11Z</time></trkpt><trkpt lat="44.724684698497086" lon="7.9523382176739235"><ele>328.0</ele><time>2026-04-11T16:31:13Z</time></trkpt><trkpt lat="44.72459493880086" lon="7.952314676262934"><ele>330.0</ele><time>2026-04-11T16:31:15Z</time></trkpt><trkpt lat="44.724520721949474" lon="7.952289688396919"><ele>332.0</ele><time>2026-04-11T16:31:16Z</time></trkpt><trkpt lat="44.724421882538756" lon="7.952249944478575"><ele>333.40000000000003</ele><time>2026-04-11T16:31:18Z</time></trkpt><trkpt lat="44.72439052964874" lon="7.952172104557846"><ele>334.8</ele><time>2026-04-11T16:31:22Z</time></trkpt><trkpt lat="44.72436347819405" lon="7.952070786237042"><ele>336.2</ele><time>2026-04-11T16:31:25.001Z</time></trkpt><trkpt lat="44.724314407424416" lon="7.951937321233787"><ele>337.6</ele><time>2026-04-11T16:31:27.001Z</time></trkpt><trkpt lat="44.72422264235725" lon="7.9518254977720435"><ele>339.0</ele><time>2026-04-11T16:31:29.001Z</time></trkpt><trkpt lat="44.72421922307578" lon="7.951630938478089"><ele>340.8333333333333</ele><time>2026-04-11T16:31:31.001Z</time></trkpt><trkpt lat="44.724208533329204" lon="7.951536958475502"><ele>342.6666666666667</ele><time>2026-04-11T16:31:32.001Z</time></trkpt><trkpt lat="44.724200015473436" lon="7.951441347026555"><ele>344.5</ele><time>2026-04-11T16:31:33.001Z</time></trkpt><trkpt lat="44.72419801943901" lon="7.951351602418985"><ele>346.33333333333337</ele><time>2026-04-11T16:31:35.001Z</time></trkpt><trkpt lat="44.72422575130909" lon="7.951147891161386"><ele>348.1666666666667</ele><time>2026-04-11T16:31:37.001Z</time></trkpt><trkpt lat="44.72424382071288" lon="7.951021275745127"><ele>350.0</ele><time>2026-04-11T16:31:38.001Z</time></trkpt><trkpt lat="44.72425582396378" lon="7.950913289649389"><ele>349.33333333333337</ele><time>2026-04-11T16:31:39.001Z</time></trkpt><trkpt lat="44.7242699608156" lon="7.950815212641999"><ele>348.6666666666667</ele><time>2026-04-11T16:31:40.001Z</time></trkpt><trkpt lat="44.7243133232804" lon="7.950687746519449"><ele>348.0</ele><time>2026-04-11T16:31:42.001Z</time></trkpt><trkpt lat="44.72437998762725" lon="7.9505811926882926"><ele>347.3333333333333</ele><time>2026-04-11T16:31:44.001Z</time></trkpt><trkpt lat="44.724413793421434" lon="7.950489164685314"><ele>346.66666666666663</ele><time>2026-04-11T16:31:53.001Z</time></trkpt><trkpt lat="44.72450251623541" lon="7.950428098384146"><ele>346.0</ele><time>2026-04-11T16:31:55.001Z</time></trkpt><trkpt lat="44.72455982631325" lon="7.950371940623966"><ele>344.6</ele><time>2026-04-11T16:31:57.001Z</time></trkpt><trkpt lat="44.72460478024521" lon="7.950282312185717"><ele>343.20000000000005</ele><time>2026-04-11T16:31:59.001Z</time></trkpt><trkpt lat="44.72464844929336" lon="7.9502146109754595"><ele>341.79999999999995</ele><time>2026-04-11T16:32:01.001Z</time></trkpt><trkpt lat="44.72475806591779" lon="7.950194290856848"><ele>340.4</ele><time>2026-04-11T16:32:04.001Z</time></trkpt><trkpt lat="44.72488683610019" lon="7.950191389499616"><ele>339.0</ele><time>2026-04-11T16:32:06.001Z</time></trkpt><trkpt lat="44.72499712006838" lon="7.950178756511211"><ele>339.0</ele><time>2026-04-11T16:32:08.001Z</time></trkpt><trkpt lat="44.72506386597376" lon="7.950164175913109"><ele>339.0</ele><time>2026-04-11T16:32:09.001Z</time></trkpt><trkpt lat="44.72519535551069" lon="7.9500991221265815"><ele>339.0</ele><time>2026-04-11T16:32:11.001Z</time></trkpt><trkpt lat="44.725260704412946" lon="7.95004363539648"><ele>339.0</ele><time>2026-04-11T16:32:12.001Z</time></trkpt><trkpt lat="44.725319105593925" lon="7.949983955053933"><ele>339.0</ele><time>2026-04-11T16:32:13.001Z</time></trkpt><trkpt lat="44.72541034877921" lon="7.94987815490566"><ele>339.3333333333333</ele><time>2026-04-11T16:32:15.001Z</time></trkpt><trkpt lat="44.72549507853669" lon="7.949747277565857"><ele>339.6666666666667</ele><time>2026-04-11T16:32:17.001Z</time></trkpt><trkpt lat="44.7255338199409" lon="7.949676323882285"><ele>340.0</ele><time>2026-04-11T16:32:18.001Z</time></trkpt><trkpt lat="44.725567996567065" lon="7.949586387534087"><ele>340.33333333333337</ele><time>2026-04-11T16:32:19.001Z</time></trkpt><trkpt lat="44.72560860119104" lon="7.949483312869618"><ele>340.6666666666667</ele><time>2026-04-11T16:32:20.001Z</time></trkpt><trkpt lat="44.72565196211248" lon="7.949385487963384"><ele>341.0</ele><time>2026-04-11T16:32:21Z</time></trkpt><trkpt lat="44.72567202207065" lon="7.949298741988332"><ele>341.0</ele><time>2026-04-11T16:32:22Z</time></trkpt><trkpt lat="44.72571193593456" lon="7.949214301797602"><ele>341.0</ele><time>2026-04-11T16:32:23Z</time></trkpt><trkpt lat="44.72573308700659" lon="7.9491141243854395"><ele>341.0</ele><time>2026-04-11T16:32:25Z</time></trkpt><trkpt lat="44.725713112346604" lon="7.948971121543149"><ele>341.0</ele><time>2026-04-11T16:32:30Z</time></trkpt><trkpt lat="44.725776558052345" lon="7.94888464265009"><ele>341.0</ele><time>2026-04-11T16:32:32Z</time></trkpt><trkpt lat="44.72588430813099" lon="7.948803371471839"><ele>339.20000000000005</ele><time>2026-04-11T16:32:34Z</time></trkpt><trkpt lat="44.725970760314794" lon="7.948716401050331"><ele>337.40000000000003</ele><time>2026-04-11T16:32:36Z</time></trkpt><trkpt lat="44.72607773291548" lon="7.948642301850449"><ele>335.6</ele><time>2026-04-11T16:32:38Z</time></trkpt><trkpt lat="44.726174081923155" lon="7.948555562757429"><ele>333.8</ele><time>2026-04-11T16:32:40Z</time></trkpt><trkpt lat="44.72625603099421" lon="7.948500489686397"><ele>332.0</ele><time>2026-04-11T16:32:42Z</time></trkpt><trkpt lat="44.72632463459067" lon="7.948486053996175"><ele>332.0</ele><time>2026-04-11T16:32:43Z</time></trkpt><trkpt lat="44.7263933619563" lon="7.948392907490435"><ele>332.0</ele><time>2026-04-11T16:32:45Z</time></trkpt><trkpt lat="44.726470464363594" lon="7.94833616049073"><ele>332.0</ele><time>2026-04-11T16:32:47Z</time></trkpt><trkpt lat="44.726555389790065" lon="7.948281210936444"><ele>332.0</ele><time>2026-04-11T16:32:49Z</time></trkpt><trkpt lat="44.72662532375784" lon="7.948221295687976"><ele>332.0</ele><time>2026-04-11T16:32:51Z</time></trkpt><trkpt lat="44.726703064039455" lon="7.94821499635569"><ele>332.0</ele><time>2026-04-11T16:32:53Z</time></trkpt><trkpt lat="44.72676781441708" lon="7.948236183039239"><ele>332.1666666666667</ele><time>2026-04-11T16:33:03Z</time></trkpt><trkpt lat="44.72684313754248" lon="7.948307197835343"><ele>332.33333333333337</ele><time>2026-04-11T16:33:09Z</time></trkpt><trkpt lat="44.72691643612113" lon="7.948323297412708"><ele>332.5</ele><time>2026-04-11T16:33:11Z</time></trkpt><trkpt lat="44.72700192735335" lon="7.948339572308908"><ele>332.6666666666667</ele><time>2026-04-11T16:33:13Z</time></trkpt><trkpt lat="44.727111620630964" lon="7.948331777026536"><ele>332.8333333333333</ele><time>2026-04-11T16:33:15Z</time></trkpt><trkpt lat="44.72718660527017" lon="7.948307786108587"><ele>333.0</ele><time>2026-04-11T16:33:16Z</time></trkpt><trkpt lat="44.72725477318794" lon="7.948298926545256"><ele>333.0</ele><time>2026-04-11T16:33:17Z</time></trkpt><trkpt lat="44.727321250248934" lon="7.948291682917991"><ele>333.0</ele><time>2026-04-11T16:33:18.001Z</time></trkpt><trkpt lat="44.72739222639904" lon="7.94828425149303"><ele>333.0</ele><time>2026-04-11T16:33:19.001Z</time></trkpt><trkpt lat="44.72745521479325" lon="7.94829207438761"><ele>333.0</ele><time>2026-04-11T16:33:20.001Z</time></trkpt><trkpt lat="44.72756616111129" lon="7.9482999262922505"><ele>333.0</ele><time>2026-04-11T16:33:22.001Z</time></trkpt><trkpt lat="44.72762969424129" lon="7.948323947633822"><ele>333.0</ele><time>2026-04-11T16:33:23.001Z</time></trkpt><trkpt lat="44.727695434030665" lon="7.948342089364326"><ele>333.0</ele><time>2026-04-11T16:33:24.001Z</time></trkpt><trkpt lat="44.72780356531013" lon="7.948309033233413"><ele>330.59999999999997</ele><time>2026-04-11T16:33:27.001Z</time></trkpt><trkpt lat="44.72786731557145" lon="7.948304581261035"><ele>328.2</ele><time>2026-04-11T16:33:28.001Z</time></trkpt><trkpt lat="44.72798744940879" lon="7.948277858455057"><ele>325.8</ele><time>2026-04-11T16:33:30.001Z</time></trkpt><trkpt lat="44.728093697308644" lon="7.948251866780952"><ele>323.4</ele><time>2026-04-11T16:33:32.001Z</time></trkpt><trkpt lat="44.72817407517209" lon="7.9482452145414415"><ele>321.0</ele><time>2026-04-11T16:33:33.001Z</time></trkpt><trkpt lat="44.728253923209095" lon="7.948238212395414"><ele>321.0</ele><time>2026-04-11T16:33:34.001Z</time></trkpt><trkpt lat="44.7283762898009" lon="7.948252251881673"><ele>321.0</ele><time>2026-04-11T16:33:36.001Z</time></trkpt><trkpt lat="44.728440800346654" lon="7.948264011910002"><ele>321.0</ele><time>2026-04-11T16:33:37.001Z</time></trkpt><trkpt lat="44.728507973862065" lon="7.94826412563071"><ele>321.0</ele><time>2026-04-11T16:33:38.001Z</time></trkpt><trkpt lat="44.72858481997982" lon="7.948242945908915"><ele>321.0</ele><time>2026-04-11T16:33:40.001Z</time></trkpt><trkpt lat="44.72864816027993" lon="7.948215550587527"><ele>321.0</ele><time>2026-04-11T16:33:41.001Z</time></trkpt><trkpt lat="44.72875876588045" lon="7.94816614337885"><ele>319.8333333333333</ele><time>2026-04-11T16:33:43.001Z</time></trkpt><trkpt lat="44.72887521675796" lon="7.9481071040264935"><ele>318.6666666666667</ele><time>2026-04-11T16:33:45.001Z</time></trkpt><trkpt lat="44.72893859345203" lon="7.948079183506065"><ele>317.5</ele><time>2026-04-11T16:33:46.001Z</time></trkpt><trkpt lat="44.7290121887451" lon="7.9480555109678095"><ele>316.33333333333337</ele><time>2026-04-11T16:33:47.001Z</time></trkpt><trkpt lat="44.72907453771606" lon="7.94804241805373"><ele>315.1666666666667</ele><time>2026-04-11T16:33:48.001Z</time></trkpt><trkpt lat="44.72914373366584" lon="7.94802246234407"><ele>314.0</ele><time>2026-04-11T16:33:50.001Z</time></trkpt><trkpt lat="44.72919421219469" lon="7.947899335440412"><ele>313.99999999999994</ele><time>2026-04-11T16:33:54.001Z</time></trkpt><trkpt lat="44.72925281310983" lon="7.947838912998015"><ele>314.0</ele><time>2026-04-11T16:33:56.001Z</time></trkpt><trkpt lat="44.729316335073825" lon="7.947791673506844"><ele>314.0</ele><time>2026-04-11T16:33:59.001Z</time></trkpt><trkpt lat="44.729369477073135" lon="7.947734669925816"><ele>314.0</ele><time>2026-04-11T16:34:02.001Z</time></trkpt><trkpt lat="44.72943076562394" lon="7.947704834619388"><ele>314.0</ele><time>2026-04-11T16:34:04.001Z</time></trkpt><trkpt lat="44.72950404588838" lon="7.947645907453702"><ele>313.99999999999994</ele><time>2026-04-11T16:34:13.001Z</time></trkpt><trkpt lat="44.729552817796545" lon="7.947581466023656"><ele>314.0</ele><time>2026-04-11T16:34:15.001Z</time></trkpt><trkpt lat="44.72960591556954" lon="7.947504879173738"><ele>314.0</ele><time>2026-04-11T16:34:17.001Z</time></trkpt><trkpt lat="44.7296552904398" lon="7.947437736048727"><ele>314.0</ele><time>2026-04-11T16:34:21.001Z</time></trkpt><trkpt lat="44.729677603833046" lon="7.947352873545404"><ele>314.0</ele><time>2026-04-11T16:34:24.001Z</time></trkpt><trkpt lat="44.7295850301465" lon="7.947321331729363"><ele>314.0</ele><time>2026-04-11T16:34:27Z</time></trkpt><trkpt lat="44.72949533695056" lon="7.947332822661475"><ele>314.0</ele><time>2026-04-11T16:34:29Z</time></trkpt><trkpt lat="44.72940572538383" lon="7.947272986689461"><ele>314.0</ele><time>2026-04-11T16:34:31Z</time></trkpt><trkpt lat="44.72930341357609" lon="7.947216519843335"><ele>312.0</ele><time>2026-04-11T16:34:33Z</time></trkpt><trkpt lat="44.72921665031141" lon="7.9471988133882485"><ele>310.0</ele><time>2026-04-11T16:34:35Z</time></trkpt><trkpt lat="44.729135399648435" lon="7.947197518694626"><ele>308.0</ele><time>2026-04-11T16:34:37Z</time></trkpt><trkpt lat="44.72905328114849" lon="7.947243483187726"><ele>306.0</ele><time>2026-04-11T16:34:40Z</time></trkpt><trkpt lat="44.72904889709906" lon="7.94713181059751"><ele>304.0</ele><time>2026-04-11T16:34:44Z</time></trkpt><trkpt lat="44.729097351088065" lon="7.9470283754541535"><ele>302.0</ele><time>2026-04-11T16:34:48Z</time></trkpt><trkpt lat="44.72913715278624" lon="7.946945012471537"><ele>302.0</ele><time>2026-04-11T16:34:51Z</time></trkpt><trkpt lat="44.72919851352674" lon="7.946898294508272"><ele>302.0</ele><time>2026-04-11T16:34:53Z</time></trkpt><trkpt lat="44.72924095131468" lon="7.946815229016078"><ele>302.0</ele><time>2026-04-11T16:34:55Z</time></trkpt><trkpt lat="44.72932554585726" lon="7.9467178745495355"><ele>302.0</ele><time>2026-04-11T16:34:58Z</time></trkpt><trkpt lat="44.72940478740543" lon="7.946694934272574"><ele>302.0</ele><time>2026-04-11T16:35:00.001Z</time></trkpt><trkpt lat="44.72950301019616" lon="7.946613436804265"><ele>302.0</ele><time>2026-04-11T16:35:02.001Z</time></trkpt><trkpt lat="44.72957634210388" lon="7.946495946006755"><ele>299.1666666666667</ele><time>2026-04-11T16:35:04.001Z</time></trkpt><trkpt lat="44.72963581234546" lon="7.946427435655047"><ele>296.33333333333337</ele><time>2026-04-11T16:35:06.001Z</time></trkpt><trkpt lat="44.729709585098746" lon="7.94636529626732"><ele>293.5</ele><time>2026-04-11T16:35:09.001Z</time></trkpt><trkpt lat="44.72978398616224" lon="7.9463117798959075"><ele>290.6666666666667</ele><time>2026-04-11T16:35:11.001Z</time></trkpt><trkpt lat="44.72985677975281" lon="7.94626458597351"><ele>287.8333333333333</ele><time>2026-04-11T16:35:13.001Z</time></trkpt><trkpt lat="44.729920541993046" lon="7.946206083242132"><ele>285.0</ele><time>2026-04-11T16:35:15.001Z</time></trkpt><trkpt lat="44.72995958225738" lon="7.946098009558243"><ele>285.0</ele><time>2026-04-11T16:35:17.001Z</time></trkpt><trkpt lat="44.730013180883205" lon="7.94601470318042"><ele>285.0</ele><time>2026-04-11T16:35:20.001Z</time></trkpt><trkpt lat="44.73008078778896" lon="7.945931015130175"><ele>285.0</ele><time>2026-04-11T16:35:22.001Z</time></trkpt><trkpt lat="44.7302047034702" lon="7.945952586677196"><ele>285.0</ele><time>2026-04-11T16:35:24.001Z</time></trkpt><trkpt lat="44.73031204548579" lon="7.945923604424529"><ele>285.0</ele><time>2026-04-11T16:35:26.001Z</time></trkpt><trkpt lat="44.730405311355284" lon="7.945815388572993"><ele>279.4</ele><time>2026-04-11T16:35:28.001Z</time></trkpt><trkpt lat="44.73046321716611" lon="7.9457768635572945"><ele>273.8</ele><time>2026-04-11T16:35:29.001Z</time></trkpt><trkpt lat="44.730558175132835" lon="7.945714324964015"><ele>268.2</ele><time>2026-04-11T16:35:31.001Z</time></trkpt><trkpt lat="44.730641774727225" lon="7.945625591941879"><ele>262.6</ele><time>2026-04-11T16:35:33.001Z</time></trkpt><trkpt lat="44.7307203166549" lon="7.945498805474631"><ele>257.0</ele><time>2026-04-11T16:35:35.001Z</time></trkpt><trkpt lat="44.73080797149813" lon="7.94538307548715"><ele>257.0</ele><time>2026-04-11T16:35:37.001Z</time></trkpt><trkpt lat="44.73091435490589" lon="7.945328789755231"><ele>257.0</ele><time>2026-04-11T16:35:39.001Z</time></trkpt><trkpt lat="44.73098805262177" lon="7.945304615609327"><ele>257.0</ele><time>2026-04-11T16:35:41.001Z</time></trkpt><trkpt lat="44.731022670199195" lon="7.945191851748622"><ele>257.0</ele><time>2026-04-11T16:35:43.001Z</time></trkpt><trkpt lat="44.731078784939236" lon="7.945057645752214"><ele>257.0</ele><time>2026-04-11T16:35:45.001Z</time></trkpt><trkpt lat="44.73113484218158" lon="7.944925983836935"><ele>252.33333333333334</ele><time>2026-04-11T16:35:47.001Z</time></trkpt><trkpt lat="44.73115091188802" lon="7.944835990203394"><ele>247.66666666666669</ele><time>2026-04-11T16:35:48.001Z</time></trkpt><trkpt lat="44.731210459638454" lon="7.944747923844601"><ele>243.0</ele><time>2026-04-11T16:35:50.001Z</time></trkpt><trkpt lat="44.73122937848871" lon="7.944643807912818"><ele>238.33333333333331</ele><time>2026-04-11T16:35:54.001Z</time></trkpt><trkpt lat="44.731306257157996" lon="7.9445332597854925"><ele>233.66666666666666</ele><time>2026-04-11T16:35:56.001Z</time></trkpt><trkpt lat="44.73136907733" lon="7.944462621098869"><ele>229.0</ele><time>2026-04-11T16:35:57.001Z</time></trkpt><trkpt lat="44.73142107759795" lon="7.944388905240187"><ele>229.0</ele><time>2026-04-11T16:35:58.001Z</time></trkpt><trkpt lat="44.73146978178479" lon="7.944305584269408"><ele>228.99999999999997</ele><time>2026-04-11T16:35:59.001Z</time></trkpt><trkpt lat="44.731520246614316" lon="7.944181031071618"><ele>228.99999999999997</ele><time>2026-04-11T16:36:00.001Z</time></trkpt><trkpt lat="44.731568640296025" lon="7.944045730402054"><ele>229.0</ele><time>2026-04-11T16:36:01.001Z</time></trkpt><trkpt lat="44.73162264808673" lon="7.943915475018904"><ele>229.0</ele><time>2026-04-11T16:36:02.001Z</time></trkpt><trkpt lat="44.73169024049835" lon="7.943775974922652"><ele>228.16666666666666</ele><time>2026-04-11T16:36:03.001Z</time></trkpt><trkpt lat="44.73176398925748" lon="7.94364929099789"><ele>227.33333333333331</ele><time>2026-04-11T16:36:04.001Z</time></trkpt><trkpt lat="44.73181439182542" lon="7.943528167557759"><ele>226.5</ele><time>2026-04-11T16:36:05.001Z</time></trkpt><trkpt lat="44.73186758058999" lon="7.943441627837938"><ele>225.66666666666669</ele><time>2026-04-11T16:36:06.001Z</time></trkpt><trkpt lat="44.731923201286826" lon="7.943398988435149"><ele>224.83333333333334</ele><time>2026-04-11T16:36:08.001Z</time></trkpt><trkpt lat="44.73197731704343" lon="7.943317246829747"><ele>224.0</ele><time>2026-04-11T16:36:14.001Z</time></trkpt><trkpt lat="44.73209722363009" lon="7.9433480644935"><ele>223.0</ele><time>2026-04-11T16:36:17.001Z</time></trkpt><trkpt lat="44.73218242872166" lon="7.943375137454776"><ele>221.99999999999997</ele><time>2026-04-11T16:36:18.001Z</time></trkpt><trkpt lat="44.732268677138215" lon="7.943390037209927"><ele>220.99999999999997</ele><time>2026-04-11T16:36:19.001Z</time></trkpt><trkpt lat="44.73236139992666" lon="7.943407490035343"><ele>220.0</ele><time>2026-04-11T16:36:20.001Z</time></trkpt><trkpt lat="44.73245791936809" lon="7.943415919273856"><ele>219.0</ele><time>2026-04-11T16:36:21.001Z</time></trkpt><trkpt lat="44.73255170722461" lon="7.943412998953043"><ele>218.79999999999998</ele><time>2026-04-11T16:36:22.001Z</time></trkpt><trkpt lat="44.73265510193493" lon="7.943419928157017"><ele>218.59999999999997</ele><time>2026-04-11T16:36:23.001Z</time></trkpt><trkpt lat="44.73275485025251" lon="7.943421050030778"><ele>218.4</ele><time>2026-04-11T16:36:24.001Z</time></trkpt><trkpt lat="44.73286036217339" lon="7.943418391306139"><ele>218.2</ele><time>2026-04-11T16:36:25.001Z</time></trkpt><trkpt lat="44.73294936140129" lon="7.943408776589524"><ele>218.0</ele><time>2026-04-11T16:36:26.001Z</time></trkpt><trkpt lat="44.73303985481555" lon="7.943404382831656"><ele>217.33333333333334</ele><time>2026-04-11T16:36:27.001Z</time></trkpt><trkpt lat="44.733121404158254" lon="7.943400722944179"><ele>216.66666666666669</ele><time>2026-04-11T16:36:28.002Z</time></trkpt><trkpt lat="44.7331981239653" lon="7.943394941505466"><ele>216.0</ele><time>2026-04-11T16:36:29.002Z</time></trkpt><trkpt lat="44.73326411023659" lon="7.943379784554433"><ele>215.33333333333331</ele><time>2026-04-11T16:36:30.002Z</time></trkpt><trkpt lat="44.73334114748735" lon="7.943379534716974"><ele>214.66666666666666</ele><time>2026-04-11T16:36:31.002Z</time></trkpt><trkpt lat="44.733410985516876" lon="7.943371993169473"><ele>214.0</ele><time>2026-04-11T16:36:32.002Z</time></trkpt><trkpt lat="44.73351943577459" lon="7.943359433061159"><ele>214.83333333333331</ele><time>2026-04-11T16:36:34.001Z</time></trkpt><trkpt lat="44.73358851573963" lon="7.943434996782041"><ele>215.66666666666666</ele><time>2026-04-11T16:36:36.001Z</time></trkpt><trkpt lat="44.733604990292854" lon="7.9435357337271"><ele>216.5</ele><time>2026-04-11T16:36:39.001Z</time></trkpt><trkpt lat="44.73363026087022" lon="7.943678483281212"><ele>217.33333333333331</ele><time>2026-04-11T16:36:41.001Z</time></trkpt><trkpt lat="44.7336364959594" lon="7.943770493799023"><ele>218.16666666666666</ele><time>2026-04-11T16:36:42.001Z</time></trkpt><trkpt lat="44.73364798672427" lon="7.94386074482001"><ele>219.0</ele><time>2026-04-11T16:36:43.001Z</time></trkpt><trkpt lat="44.7336701199879" lon="7.94397278206946"><ele>219.0</ele><time>2026-04-11T16:36:44.001Z</time></trkpt><trkpt lat="44.733691497957885" lon="7.944086911720178"><ele>219.0</ele><time>2026-04-11T16:36:45.001Z</time></trkpt><trkpt lat="44.73371512539575" lon="7.944188187429673"><ele>219.0</ele><time>2026-04-11T16:36:46.001Z</time></trkpt><trkpt lat="44.733742222782446" lon="7.944275122035182"><ele>219.0</ele><time>2026-04-11T16:36:47.001Z</time></trkpt><trkpt lat="44.73376954965162" lon="7.944360577464455"><ele>219.0</ele><time>2026-04-11T16:36:48.001Z</time></trkpt><trkpt lat="44.73379818342303" lon="7.9444449582257235"><ele>219.0</ele><time>2026-04-11T16:36:49.001Z</time></trkpt><trkpt lat="44.7338306929959" lon="7.944531993082924"><ele>219.0</ele><time>2026-04-11T16:36:50.001Z</time></trkpt><trkpt lat="44.73386387536331" lon="7.944690152934388"><ele>218.14285714285714</ele><time>2026-04-11T16:36:52.001Z</time></trkpt><trkpt lat="44.73388060616448" lon="7.944785869344082"><ele>217.28571428571428</ele><time>2026-04-11T16:36:53.001Z</time></trkpt><trkpt lat="44.733895757692686" lon="7.944877952586065"><ele>216.42857142857142</ele><time>2026-04-11T16:36:54.001Z</time></trkpt><trkpt lat="44.73391430514296" lon="7.944967089274864"><ele>215.57142857142856</ele><time>2026-04-11T16:36:55.001Z</time></trkpt><trkpt lat="44.7339307985929" lon="7.945060784466397"><ele>214.71428571428572</ele><time>2026-04-11T16:36:56.001Z</time></trkpt><trkpt lat="44.73394856579734" lon="7.945162476009622"><ele>213.85714285714283</ele><time>2026-04-11T16:36:57.001Z</time></trkpt><trkpt lat="44.73396317427196" lon="7.945257060118408"><ele>213.0</ele><time>2026-04-11T16:36:58.001Z</time></trkpt><trkpt lat="44.733990957739906" lon="7.945442857767097"><ele>212.83333333333334</ele><time>2026-04-11T16:37:00.001Z</time></trkpt><trkpt lat="44.73399960444439" lon="7.945542943383373"><ele>212.66666666666669</ele><time>2026-04-11T16:37:01.001Z</time></trkpt><trkpt lat="44.73400240338587" lon="7.945643201014895"><ele>212.5</ele><time>2026-04-11T16:37:02.001Z</time></trkpt><trkpt lat="44.73400259281749" lon="7.945756192726547"><ele>212.33333333333334</ele><time>2026-04-11T16:37:03.001Z</time></trkpt><trkpt lat="44.73400227960374" lon="7.945867846189293"><ele>212.16666666666669</ele><time>2026-04-11T16:37:04.001Z</time></trkpt><trkpt lat="44.73400440171505" lon="7.945989010451742"><ele>212.0</ele><time>2026-04-11T16:37:05.001Z</time></trkpt><trkpt lat="44.734005849910986" lon="7.946098931637917"><ele>212.00000000000003</ele><time>2026-04-11T16:37:06.001Z</time></trkpt><trkpt lat="44.73401704402361" lon="7.946194332704173"><ele>212.0</ele><time>2026-04-11T16:37:07.001Z</time></trkpt><trkpt lat="44.734041055133424" lon="7.94628769244935"><ele>212.0</ele><time>2026-04-11T16:37:08.001Z</time></trkpt><trkpt lat="44.73408034968757" lon="7.946390025861706"><ele>212.0</ele><time>2026-04-11T16:37:09.001Z</time></trkpt><trkpt lat="44.734116771335465" lon="7.9464944897875585"><ele>212.00000000000003</ele><time>2026-04-11T16:37:10.001Z</time></trkpt><trkpt lat="44.7341537309931" lon="7.946593070863758"><ele>212.0</ele><time>2026-04-11T16:37:11.001Z</time></trkpt><trkpt lat="44.73418504236018" lon="7.946678851154925"><ele>212.00000000000003</ele><time>2026-04-11T16:37:12.001Z</time></trkpt><trkpt lat="44.734235865739784" lon="7.946811724194982"><ele>212.0</ele><time>2026-04-11T16:37:14.001Z</time></trkpt><trkpt lat="44.73426482041915" lon="7.946918687657316"><ele>212.0</ele><time>2026-04-11T16:37:16.001Z</time></trkpt><trkpt lat="44.73430783697934" lon="7.946992205128964"><ele>212.0</ele><time>2026-04-11T16:37:19.001Z</time></trkpt><trkpt lat="44.734386176571846" lon="7.947008174547444"><ele>212.00000000000003</ele><time>2026-04-11T16:37:41.001Z</time></trkpt><trkpt lat="44.734450212022516" lon="7.946963549162923"><ele>212.0</ele><time>2026-04-11T16:37:42.001Z</time></trkpt><trkpt lat="44.7345255573706" lon="7.946944423833048"><ele>212.0</ele><time>2026-04-11T16:37:44.001Z</time></trkpt><trkpt lat="44.73459696769612" lon="7.946933355084972"><ele>212.0</ele><time>2026-04-11T16:37:51.001Z</time></trkpt><trkpt lat="44.734641386172" lon="7.947251480013954"><ele>212.0</ele><time>2026-04-11T16:37:52.001Z</time></trkpt><trkpt lat="44.734650923970435" lon="7.947413162094584"><ele>212.0</ele><time>2026-04-11T16:37:53.001Z</time></trkpt><trkpt lat="44.73467152868105" lon="7.947586725217113"><ele>212.25</ele><time>2026-04-11T16:37:54.001Z</time></trkpt><trkpt lat="44.73469243223936" lon="7.947756282625988"><ele>212.5</ele><time>2026-04-11T16:37:55.001Z</time></trkpt><trkpt lat="44.734714103988395" lon="7.947902896538988"><ele>212.75</ele><time>2026-04-11T16:37:56.001Z</time></trkpt><trkpt lat="44.73472792731786" lon="7.948067311480175"><ele>213.0</ele><time>2026-04-11T16:37:57.001Z</time></trkpt><trkpt lat="44.734738324184455" lon="7.948236059237282"><ele>213.0</ele><time>2026-04-11T16:37:58.001Z</time></trkpt><trkpt lat="44.73474947822876" lon="7.948402277182771"><ele>213.0</ele><time>2026-04-11T16:37:59.001Z</time></trkpt><trkpt lat="44.73475942053779" lon="7.948551517058357"><ele>213.0</ele><time>2026-04-11T16:38:00.001Z</time></trkpt><trkpt lat="44.734763569404734" lon="7.948688719536364"><ele>213.0</ele><time>2026-04-11T16:38:01.001Z</time></trkpt><trkpt lat="44.73475882080904" lon="7.948814201868734"><ele>213.0</ele><time>2026-04-11T16:38:02.001Z</time></trkpt><trkpt lat="44.73474519174981" lon="7.948931594789767"><ele>213.0</ele><time>2026-04-11T16:38:03.001Z</time></trkpt><trkpt lat="44.73472820163467" lon="7.949055166339577"><ele>213.0</ele><time>2026-04-11T16:38:04.001Z</time></trkpt><trkpt lat="44.734729113590696" lon="7.949165044587684"><ele>213.0</ele><time>2026-04-11T16:38:05.001Z</time></trkpt><trkpt lat="44.734771246063836" lon="7.949253486410317"><ele>213.0</ele><time>2026-04-11T16:38:06.001Z</time></trkpt><trkpt lat="44.73484957740685" lon="7.949292087344524"><ele>213.0</ele><time>2026-04-11T16:38:07.001Z</time></trkpt><trkpt lat="44.73493085315162" lon="7.949268866678497"><ele>213.0</ele><time>2026-04-11T16:38:08.001Z</time></trkpt><trkpt lat="44.73502814273624" lon="7.949086554392325"><ele>213.0</ele><time>2026-04-11T16:38:10.001Z</time></trkpt><trkpt lat="44.735016801895235" lon="7.948952674535351"><ele>213.0</ele><time>2026-04-11T16:38:11.001Z</time></trkpt><trkpt lat="44.73501612326956" lon="7.948797378154426"><ele>213.0</ele><time>2026-04-11T16:38:12.001Z</time></trkpt><trkpt lat="44.735067942724044" lon="7.948642128658705"><ele>213.0</ele><time>2026-04-11T16:38:13.001Z</time></trkpt><trkpt lat="44.73514509317852" lon="7.948479812701214"><ele>214.33333333333331</ele><time>2026-04-11T16:38:14.001Z</time></trkpt><trkpt lat="44.735223066896076" lon="7.948306537259752"><ele>215.66666666666666</ele><time>2026-04-11T16:38:15.001Z</time></trkpt><trkpt lat="44.73531003964602" lon="7.948112232858061"><ele>217.0</ele><time>2026-04-11T16:38:16.001Z</time></trkpt><trkpt lat="44.73539984030841" lon="7.9479007262628265"><ele>217.0</ele><time>2026-04-11T16:38:17.001Z</time></trkpt><trkpt lat="44.73548435046326" lon="7.947697930069634"><ele>217.0</ele><time>2026-04-11T16:38:18.001Z</time></trkpt><trkpt lat="44.73555260247245" lon="7.947527868509446"><ele>217.0</ele><time>2026-04-11T16:38:19.001Z</time></trkpt><trkpt lat="44.7356202215063" lon="7.947379778350706"><ele>217.0</ele><time>2026-04-11T16:38:20.001Z</time></trkpt><trkpt lat="44.73568416685615" lon="7.947247032556524"><ele>216.39999999999998</ele><time>2026-04-11T16:38:21.001Z</time></trkpt><trkpt lat="44.73573708824221" lon="7.94712606406093"><ele>215.79999999999998</ele><time>2026-04-11T16:38:22.001Z</time></trkpt><trkpt lat="44.73577211195588" lon="7.947028354115016"><ele>215.2</ele><time>2026-04-11T16:38:23.001Z</time></trkpt><trkpt lat="44.735835464768" lon="7.9469510795385405"><ele>214.6</ele><time>2026-04-11T16:38:25.001Z</time></trkpt><trkpt lat="44.73590868489166" lon="7.946925254512735"><ele>214.0</ele><time>2026-04-11T16:38:40Z</time></trkpt><trkpt lat="44.736132194120025" lon="7.9471087495240464"><ele>213.99999999999997</ele><time>2026-04-11T16:38:41Z</time></trkpt><trkpt lat="44.73620540999128" lon="7.9471451941351345"><ele>214.0</ele><time>2026-04-11T16:38:43Z</time></trkpt><trkpt lat="44.736287327508116" lon="7.94718990046316"><ele>214.0</ele><time>2026-04-11T16:38:46Z</time></trkpt><trkpt lat="44.736230875713424" lon="7.947139385569615"><ele>214.0</ele><time>2026-04-11T16:38:52Z</time></trkpt><trkpt lat="44.73615146964615" lon="7.947120755547583"><ele>213.99999999999997</ele><time>2026-04-11T16:38:53Z</time></trkpt><trkpt lat="44.736067135618995" lon="7.947078989604065"><ele>214.0</ele><time>2026-04-11T16:38:54Z</time></trkpt><trkpt lat="44.73600763042325" lon="7.94704442131011"><ele>214.0</ele><time>2026-04-11T16:38:55Z</time></trkpt></trkseg></trk></gpx>